<?xml version='1.0' encoding='UTF-8'?><gpx version="1.1" creator="JPX - https://github.com/jenetics/jpx" xmlns="http://www.topografix.com/GPX/1/1"><trk><trkseg><trkpt lat="42.39327120420676" lon="12.95223501210346"><ele>504.0</ele><time>2026-04-04T08:23:17.051Z</time></trkpt><trkpt lat="42.393291693346505" lon="12.95209106377464"><ele>504.0</ele><time>2026-04-04T08:23:19.051Z</time></trkpt><trkpt lat="42.39339802510622" lon="12.952029554783778"><ele>504.0</ele><time>2026-04-04T08:23:21.051Z</time></trkpt><trkpt lat="42.393460923522134" lon="12.952094330533686"><ele>504.0</ele><time>2026-04-04T08:23:52Z</time></trkpt><trkpt lat="42.393524657956725" lon="12.952088791548318"><ele>504.0</ele><time>2026-04-04T08:24:10Z</time></trkpt><trkpt lat="42.39345483438228" lon="12.95218398322152"><ele>504.0</ele><time>2026-04-04T08:24:41Z</time></trkpt><trkpt lat="42.39334208568061" lon="12.9521992315054"><ele>504.0</ele><time>2026-04-04T08:24:43Z</time></trkpt><trkpt lat="42.393275198389986" lon="12.952237207609006"><ele>504.0</ele><time>2026-04-04T08:24:44Z</time></trkpt><trkpt lat="42.39318037312817" lon="12.952260022757939"><ele>504.0</ele><time>2026-04-04T08:24:46Z</time></trkpt><trkpt lat="42.393075524626646" lon="12.95221505479794"><ele>504.0</ele><time>2026-04-04T08:24:48Z</time></trkpt><trkpt lat="42.39296691477289" lon="12.95214506544761"><ele>497.79999999999995</ele><time>2026-04-04T08:24:50Z</time></trkpt><trkpt lat="42.3928593940728" lon="12.952084755575731"><ele>491.59999999999997</ele><time>2026-04-04T08:24:52Z</time></trkpt><trkpt lat="42.39275644037727" lon="12.952020595937704"><ele>485.4</ele><time>2026-04-04T08:24:54Z</time></trkpt><trkpt lat="42.39267766013672" lon="12.95193684102568"><ele>479.2</ele><time>2026-04-04T08:24:56Z</time></trkpt><trkpt lat="42.39262819149204" lon="12.951876195592279"><ele>473.0</ele><time>2026-04-04T08:24:58Z</time></trkpt><trkpt lat="42.3925547461656" lon="12.951786189565826"><ele>477.0</ele><time>2026-04-04T08:25:00Z</time></trkpt><trkpt lat="42.39250109821704" lon="12.95166907121415"><ele>480.99999999999994</ele><time>2026-04-04T08:25:02Z</time></trkpt><trkpt lat="42.39244472158478" lon="12.95157321495312"><ele>484.99999999999994</ele><time>2026-04-04T08:25:04Z</time></trkpt><trkpt lat="42.39239214514538" lon="12.951493492549552"><ele>489.0</ele><time>2026-04-04T08:25:17Z</time></trkpt><trkpt lat="42.392335540795195" lon="12.951368494151787"><ele>493.0</ele><time>2026-04-04T08:25:19Z</time></trkpt><trkpt lat="42.39226576770865" lon="12.951210326170084"><ele>493.00000000000006</ele><time>2026-04-04T08:25:21Z</time></trkpt><trkpt lat="42.39225605433117" lon="12.951088336736522"><ele>493.0</ele><time>2026-04-04T08:25:23Z</time></trkpt><trkpt lat="42.3922652765932" lon="12.951000855890863"><ele>493.0</ele><time>2026-04-04T08:25:24Z</time></trkpt><trkpt lat="42.39226979951672" lon="12.950912448147301"><ele>493.0</ele><time>2026-04-04T08:25:25Z</time></trkpt><trkpt lat="42.39225443793555" lon="12.950764062708869"><ele>493.00000000000006</ele><time>2026-04-04T08:25:27Z</time></trkpt><trkpt lat="42.39220883496345" lon="12.950654551573933"><ele>493.0</ele><time>2026-04-04T08:25:29.001Z</time></trkpt><trkpt lat="42.39218495573005" lon="12.950527545814445"><ele>486.1666666666667</ele><time>2026-04-04T08:25:31.001Z</time></trkpt><trkpt lat="42.39214003155273" lon="12.950413748840269"><ele>479.33333333333337</ele><time>2026-04-04T08:25:33.001Z</time></trkpt><trkpt lat="42.39211626817717" lon="12.950328175624046"><ele>472.5</ele><time>2026-04-04T08:25:35.001Z</time></trkpt><trkpt lat="42.39210393172069" lon="12.95021342932488"><ele>465.66666666666663</ele><time>2026-04-04T08:25:39.001Z</time></trkpt><trkpt lat="42.39207093473614" lon="12.950306744761185"><ele>458.8333333333333</ele><time>2026-04-04T08:25:42.001Z</time></trkpt><trkpt lat="42.39205159628272" lon="12.95040022084807"><ele>452.0</ele><time>2026-04-04T08:27:43.001Z</time></trkpt><trkpt lat="42.392040087892966" lon="12.95051517736756"><ele>451.99999999999994</ele><time>2026-04-04T08:27:45.001Z</time></trkpt><trkpt lat="42.3920368785678" lon="12.95062478868531"><ele>452.0</ele><time>2026-04-04T08:27:47.001Z</time></trkpt><trkpt lat="42.392023215980984" lon="12.950737756941699"><ele>452.0</ele><time>2026-04-04T08:27:48.001Z</time></trkpt><trkpt lat="42.39202020036645" lon="12.950837283210985"><ele>452.0</ele><time>2026-04-04T08:27:49.001Z</time></trkpt><trkpt lat="42.39201951216813" lon="12.9509301194558"><ele>451.99999999999994</ele><time>2026-04-04T08:27:50.001Z</time></trkpt><trkpt lat="42.39202362417424" lon="12.951044100396093"><ele>452.0</ele><time>2026-04-04T08:27:51.001Z</time></trkpt><trkpt lat="42.392029221214806" lon="12.951169756717858"><ele>451.66666666666663</ele><time>2026-04-04T08:27:52.001Z</time></trkpt><trkpt lat="42.3920298252078" lon="12.951280644955625"><ele>451.3333333333333</ele><time>2026-04-04T08:27:53.001Z</time></trkpt><trkpt lat="42.39202447491569" lon="12.95139200457399"><ele>451.0</ele><time>2026-04-04T08:27:54.001Z</time></trkpt><trkpt lat="42.39201078688709" lon="12.951546227666652"><ele>450.66666666666663</ele><time>2026-04-04T08:27:55.001Z</time></trkpt><trkpt lat="42.39200384497162" lon="12.951640608693015"><ele>450.3333333333333</ele><time>2026-04-04T08:27:56.001Z</time></trkpt><trkpt lat="42.39193539167752" lon="12.951732375002955"><ele>450.0</ele><time>2026-04-04T08:27:57.001Z</time></trkpt><trkpt lat="42.39194465189378" lon="12.951911984759237"><ele>449.8333333333333</ele><time>2026-04-04T08:27:59.001Z</time></trkpt><trkpt lat="42.39194180000316" lon="12.952015294497697"><ele>449.66666666666663</ele><time>2026-04-04T08:28:00.001Z</time></trkpt><trkpt lat="42.39194516322811" lon="12.952131585691214"><ele>449.5</ele><time>2026-04-04T08:28:01.001Z</time></trkpt><trkpt lat="42.391959191167594" lon="12.952250602406966"><ele>449.3333333333333</ele><time>2026-04-04T08:28:02.001Z</time></trkpt><trkpt lat="42.39199873322356" lon="12.952355649615551"><ele>449.16666666666663</ele><time>2026-04-04T08:28:03.001Z</time></trkpt><trkpt lat="42.39203039334502" lon="12.952454212142472"><ele>449.0</ele><time>2026-04-04T08:28:04.001Z</time></trkpt><trkpt lat="42.392090036386406" lon="12.952571343310227"><ele>449.8333333333333</ele><time>2026-04-04T08:28:05.001Z</time></trkpt><trkpt lat="42.392135483852954" lon="12.952670044173018"><ele>450.66666666666663</ele><time>2026-04-04T08:28:06.001Z</time></trkpt><trkpt lat="42.39206969455289" lon="12.95278583177127"><ele>451.5</ele><time>2026-04-04T08:28:08.001Z</time></trkpt><trkpt lat="42.39199766408883" lon="12.952825227761501"><ele>452.33333333333337</ele><time>2026-04-04T08:28:09.001Z</time></trkpt><trkpt lat="42.3919270505127" lon="12.952821288721774"><ele>453.1666666666667</ele><time>2026-04-04T08:28:10.001Z</time></trkpt><trkpt lat="42.39183711191012" lon="12.952844298925742"><ele>454.0</ele><time>2026-04-04T08:28:11.001Z</time></trkpt><trkpt lat="42.39175480435297" lon="12.952870128136048"><ele>454.00000000000006</ele><time>2026-04-04T08:28:12Z</time></trkpt><trkpt lat="42.39169434624633" lon="12.952936987895828"><ele>454.0</ele><time>2026-04-04T08:28:13Z</time></trkpt><trkpt lat="42.39162713328119" lon="12.952975686745072"><ele>454.0</ele><time>2026-04-04T08:28:14Z</time></trkpt><trkpt lat="42.39155391360878" lon="12.953025383717149"><ele>454.0</ele><time>2026-04-04T08:28:15Z</time></trkpt><trkpt lat="42.391462409004006" lon="12.953098916484196"><ele>454.00000000000006</ele><time>2026-04-04T08:28:16Z</time></trkpt><trkpt lat="42.39143868203156" lon="12.9531947542068"><ele>454.0</ele><time>2026-04-04T08:28:17Z</time></trkpt><trkpt lat="42.39137434593966" lon="12.953114863514086"><ele>454.00000000000006</ele><time>2026-04-04T08:28:19Z</time></trkpt><trkpt lat="42.391406842333566" lon="12.953011258032197"><ele>454.0</ele><time>2026-04-04T08:28:20Z</time></trkpt><trkpt lat="42.391402464614345" lon="12.9529126019611"><ele>454.0</ele><time>2026-04-04T08:28:21Z</time></trkpt><trkpt lat="42.391403130101295" lon="12.95280988705064"><ele>454.0</ele><time>2026-04-04T08:28:22Z</time></trkpt><trkpt lat="42.39141542279144" lon="12.952702919108393"><ele>454.00000000000006</ele><time>2026-04-04T08:28:23Z</time></trkpt><trkpt lat="42.391427406186416" lon="12.952602111435475"><ele>454.0</ele><time>2026-04-04T08:28:24Z</time></trkpt><trkpt lat="42.39143681565178" lon="12.952509401277297"><ele>453.1666666666667</ele><time>2026-04-04T08:28:25Z</time></trkpt><trkpt lat="42.391446779111135" lon="12.952423095585967"><ele>452.33333333333337</ele><time>2026-04-04T08:28:26Z</time></trkpt><trkpt lat="42.39145756461399" lon="12.952327939490528"><ele>451.5</ele><time>2026-04-04T08:28:27Z</time></trkpt><trkpt lat="42.39146125139304" lon="12.95223671278633"><ele>450.66666666666663</ele><time>2026-04-04T08:28:28Z</time></trkpt><trkpt lat="42.3914387468069" lon="12.952148845551205"><ele>449.8333333333333</ele><time>2026-04-04T08:28:29Z</time></trkpt><trkpt lat="42.391397866432605" lon="12.951998317384634"><ele>449.0</ele><time>2026-04-04T08:28:31Z</time></trkpt><trkpt lat="42.39133090133886" lon="12.951881821163104"><ele>448.75</ele><time>2026-04-04T08:28:33Z</time></trkpt><trkpt lat="42.391250039895446" lon="12.951766519783783"><ele>448.5</ele><time>2026-04-04T08:28:35Z</time></trkpt><trkpt lat="42.39118508482751" lon="12.951712579621047"><ele>448.25</ele><time>2026-04-04T08:28:36Z</time></trkpt><trkpt lat="42.3910510253917" lon="12.951605179345776"><ele>448.0</ele><time>2026-04-04T08:28:37Z</time></trkpt><trkpt lat="42.390884712006724" lon="12.951505120326294"><ele>446.25</ele><time>2026-04-04T08:28:38Z</time></trkpt><trkpt lat="42.390759646996706" lon="12.951421313272713"><ele>444.5</ele><time>2026-04-04T08:28:39Z</time></trkpt><trkpt lat="42.39065681817683" lon="12.951332420976634"><ele>442.75</ele><time>2026-04-04T08:28:40Z</time></trkpt><trkpt lat="42.390567450963715" lon="12.951247463339675"><ele>441.0</ele><time>2026-04-04T08:28:41Z</time></trkpt><trkpt lat="42.3905069436082" lon="12.951165665973546"><ele>443.6</ele><time>2026-04-04T08:28:42Z</time></trkpt><trkpt lat="42.39044496966879" lon="12.951052956114964"><ele>446.20000000000005</ele><time>2026-04-04T08:28:43Z</time></trkpt><trkpt lat="42.39038658174682" lon="12.950933230993293"><ele>448.79999999999995</ele><time>2026-04-04T08:28:44Z</time></trkpt><trkpt lat="42.390352209408036" lon="12.950814794699275"><ele>451.4</ele><time>2026-04-04T08:28:45Z</time></trkpt><trkpt lat="42.390321064798236" lon="12.950688614008744"><ele>454.0</ele><time>2026-04-04T08:28:46Z</time></trkpt><trkpt lat="42.390298286049656" lon="12.950547712371112"><ele>454.0</ele><time>2026-04-04T08:28:47Z</time></trkpt><trkpt lat="42.39029178221802" lon="12.950386917325167"><ele>454.0</ele><time>2026-04-04T08:28:48Z</time></trkpt><trkpt lat="42.39028054571362" lon="12.95021888744254"><ele>454.0</ele><time>2026-04-04T08:28:49Z</time></trkpt><trkpt lat="42.39026671176186" lon="12.95005137586911"><ele>454.0</ele><time>2026-04-04T08:28:50Z</time></trkpt><trkpt lat="42.39024490318407" lon="12.949853465466793"><ele>452.6</ele><time>2026-04-04T08:28:51Z</time></trkpt><trkpt lat="42.39023558256479" lon="12.949668223344299"><ele>451.2</ele><time>2026-04-04T08:28:52Z</time></trkpt><trkpt lat="42.390210721507394" lon="12.949521234633385"><ele>449.80000000000007</ele><time>2026-04-04T08:28:53Z</time></trkpt><trkpt lat="42.390203879959934" lon="12.949383961117958"><ele>448.40000000000003</ele><time>2026-04-04T08:28:54Z</time></trkpt><trkpt lat="42.390197546968196" lon="12.949252994676451"><ele>447.0</ele><time>2026-04-04T08:28:55Z</time></trkpt><trkpt lat="42.390190158198706" lon="12.949141642613364"><ele>446.0</ele><time>2026-04-04T08:28:56Z</time></trkpt><trkpt lat="42.39018002052186" lon="12.949038618242449"><ele>445.00000000000006</ele><time>2026-04-04T08:28:57Z</time></trkpt><trkpt lat="42.39018054066461" lon="12.948915886545823"><ele>444.00000000000006</ele><time>2026-04-04T08:28:58Z</time></trkpt><trkpt lat="42.39018040488685" lon="12.948795806549427"><ele>443.0</ele><time>2026-04-04T08:28:59Z</time></trkpt><trkpt lat="42.390213734732114" lon="12.948682886087301"><ele>442.0</ele><time>2026-04-04T08:29:00Z</time></trkpt><trkpt lat="42.390238168655195" lon="12.948544204117022"><ele>442.0</ele><time>2026-04-04T08:29:01Z</time></trkpt><trkpt lat="42.39027161806915" lon="12.948403966498331"><ele>442.0</ele><time>2026-04-04T08:29:02Z</time></trkpt><trkpt lat="42.39027562858775" lon="12.94825890471974"><ele>442.0</ele><time>2026-04-04T08:29:03Z</time></trkpt><trkpt lat="42.390260357710275" lon="12.948111594022283"><ele>442.0</ele><time>2026-04-04T08:29:04Z</time></trkpt><trkpt lat="42.39023363099609" lon="12.947924970029396"><ele>439.0</ele><time>2026-04-04T08:29:05Z</time></trkpt><trkpt lat="42.39020205809767" lon="12.947731250262253"><ele>436.0</ele><time>2026-04-04T08:29:06Z</time></trkpt><trkpt lat="42.390171143775426" lon="12.947567009000363"><ele>433.0</ele><time>2026-04-04T08:29:07Z</time></trkpt><trkpt lat="42.39013675968523" lon="12.947435636373745"><ele>430.0</ele><time>2026-04-04T08:29:08Z</time></trkpt><trkpt lat="42.390093150067905" lon="12.947280288951882"><ele>428.25</ele><time>2026-04-04T08:29:09Z</time></trkpt><trkpt lat="42.390040525526295" lon="12.947118657129643"><ele>426.5</ele><time>2026-04-04T08:29:10Z</time></trkpt><trkpt lat="42.38997290550471" lon="12.946966619993562"><ele>424.75</ele><time>2026-04-04T08:29:11Z</time></trkpt><trkpt lat="42.389885121574665" lon="12.94682886618646"><ele>423.0</ele><time>2026-04-04T08:29:12Z</time></trkpt><trkpt lat="42.38979682732588" lon="12.946696324721925"><ele>423.0</ele><time>2026-04-04T08:29:13Z</time></trkpt><trkpt lat="42.389720813467896" lon="12.94655308836103"><ele>423.0</ele><time>2026-04-04T08:29:14Z</time></trkpt><trkpt lat="42.389647371610494" lon="12.946488711555594"><ele>423.0</ele><time>2026-04-04T08:29:15Z</time></trkpt><trkpt lat="42.389597404557364" lon="12.946420984112805"><ele>423.0</ele><time>2026-04-04T08:29:17Z</time></trkpt><trkpt lat="42.38955265472826" lon="12.946338162276133"><ele>423.0</ele><time>2026-04-04T08:29:19Z</time></trkpt><trkpt lat="42.38950545957527" lon="12.946240286196726"><ele>422.8333333333333</ele><time>2026-04-04T08:29:21Z</time></trkpt><trkpt lat="42.389453920058756" lon="12.946135318431098"><ele>422.66666666666663</ele><time>2026-04-04T08:29:23Z</time></trkpt><trkpt lat="42.389395129049284" lon="12.946016233538494"><ele>422.5</ele><time>2026-04-04T08:29:25Z</time></trkpt><trkpt lat="42.38935681824057" lon="12.945935646386548"><ele>422.3333333333333</ele><time>2026-04-04T08:29:26Z</time></trkpt><trkpt lat="42.389312611625606" lon="12.945844849274739"><ele>422.16666666666663</ele><time>2026-04-04T08:29:27Z</time></trkpt><trkpt lat="42.389273648591676" lon="12.9457500895271"><ele>422.0</ele><time>2026-04-04T08:29:28Z</time></trkpt><trkpt lat="42.389238071068114" lon="12.94565839670413"><ele>420.99999999999994</ele><time>2026-04-04T08:29:29Z</time></trkpt><trkpt lat="42.389203875848445" lon="12.945575528493432"><ele>420.0</ele><time>2026-04-04T08:29:30Z</time></trkpt><trkpt lat="42.38917276839423" lon="12.945496307587467"><ele>419.0</ele><time>2026-04-04T08:29:31Z</time></trkpt><trkpt lat="42.38913966241243" lon="12.945419815647378"><ele>418.0</ele><time>2026-04-04T08:29:32Z</time></trkpt><trkpt lat="42.389110190607944" lon="12.945342436379896"><ele>416.99999999999994</ele><time>2026-04-04T08:29:33Z</time></trkpt><trkpt lat="42.38905501814406" lon="12.945194689536022"><ele>416.0</ele><time>2026-04-04T08:29:35Z</time></trkpt><trkpt lat="42.38899711787603" lon="12.94507480020122"><ele>416.0</ele><time>2026-04-04T08:29:37Z</time></trkpt><trkpt lat="42.38896647168254" lon="12.944992778321073"><ele>416.0</ele><time>2026-04-04T08:29:38Z</time></trkpt><trkpt lat="42.38892489970171" lon="12.944887223182414"><ele>416.0</ele><time>2026-04-04T08:29:39Z</time></trkpt><trkpt lat="42.388866843892714" lon="12.944741853498012"><ele>416.0</ele><time>2026-04-04T08:29:40.001Z</time></trkpt><trkpt lat="42.38878499118009" lon="12.944531837603543"><ele>415.0</ele><time>2026-04-04T08:29:41.001Z</time></trkpt><trkpt lat="42.3887040931933" lon="12.944306945935711"><ele>414.0</ele><time>2026-04-04T08:29:42.001Z</time></trkpt><trkpt lat="42.38863236503645" lon="12.944169614499355"><ele>413.0</ele><time>2026-04-04T08:29:43.001Z</time></trkpt><trkpt lat="42.38859395645116" lon="12.944069352955431"><ele>412.0</ele><time>2026-04-04T08:29:44.001Z</time></trkpt><trkpt lat="42.38857768016184" lon="12.943981204331273"><ele>411.71428571428567</ele><time>2026-04-04T08:29:45.001Z</time></trkpt><trkpt lat="42.38854365225432" lon="12.943893521090182"><ele>411.42857142857144</ele><time>2026-04-04T08:29:46.001Z</time></trkpt><trkpt lat="42.38849590352288" lon="12.943818782077914"><ele>411.1428571428571</ele><time>2026-04-04T08:29:47.001Z</time></trkpt><trkpt lat="42.38846814791057" lon="12.943732792007722"><ele>410.85714285714283</ele><time>2026-04-04T08:29:48.001Z</time></trkpt><trkpt lat="42.38844242629376" lon="12.94364811073195"><ele>410.57142857142856</ele><time>2026-04-04T08:29:49.001Z</time></trkpt><trkpt lat="42.38840846478154" lon="12.943564644411833"><ele>410.2857142857143</ele><time>2026-04-04T08:29:50.001Z</time></trkpt><trkpt lat="42.38837288364784" lon="12.94348221803644"><ele>410.0</ele><time>2026-04-04T08:29:51.001Z</time></trkpt><trkpt lat="42.388341651880104" lon="12.94340565055821"><ele>409.8333333333333</ele><time>2026-04-04T08:29:52.001Z</time></trkpt><trkpt lat="42.388296334012175" lon="12.943268896243456"><ele>409.66666666666663</ele><time>2026-04-04T08:29:54.001Z</time></trkpt><trkpt lat="42.38825419821225" lon="12.943159619794582"><ele>409.5</ele><time>2026-04-04T08:29:56.001Z</time></trkpt><trkpt lat="42.38830889009905" lon="12.943110071525243"><ele>409.33333333333337</ele><time>2026-04-04T08:32:04.001Z</time></trkpt><trkpt lat="42.38841004689567" lon="12.94306899867998"><ele>409.1666666666667</ele><time>2026-04-04T08:32:55Z</time></trkpt><trkpt lat="42.38847774403165" lon="12.943047104320128"><ele>409.0</ele><time>2026-04-04T08:32:56Z</time></trkpt><trkpt lat="42.38854968282203" lon="12.943014089241128"><ele>409.00000000000006</ele><time>2026-04-04T08:32:57Z</time></trkpt><trkpt lat="42.388617888510744" lon="12.942972369906924"><ele>409.0</ele><time>2026-04-04T08:32:58Z</time></trkpt><trkpt lat="42.38867998108445" lon="12.94291210968378"><ele>409.0</ele><time>2026-04-04T08:32:59Z</time></trkpt><trkpt lat="42.388748280068874" lon="12.94284449501272"><ele>409.0</ele><time>2026-04-04T08:33:00Z</time></trkpt><trkpt lat="42.38878785961111" lon="12.942747763417296"><ele>409.00000000000006</ele><time>2026-04-04T08:33:01Z</time></trkpt><trkpt lat="42.38880261463917" lon="12.94266107882241"><ele>409.0</ele><time>2026-04-04T08:33:02Z</time></trkpt><trkpt lat="42.388854752203265" lon="12.942523149212628"><ele>409.4</ele><time>2026-04-04T08:33:04Z</time></trkpt><trkpt lat="42.38889941286718" lon="12.94238137267975"><ele>409.79999999999995</ele><time>2026-04-04T08:33:06Z</time></trkpt><trkpt lat="42.38893271053235" lon="12.942279725929383"><ele>410.20000000000005</ele><time>2026-04-04T08:33:08Z</time></trkpt><trkpt lat="42.38890482913553" lon="12.94215711922086"><ele>410.6</ele><time>2026-04-04T08:33:10Z</time></trkpt><trkpt lat="42.38883186815853" lon="12.942039906004519"><ele>411.0</ele><time>2026-04-04T08:33:12Z</time></trkpt><trkpt lat="42.38876130992335" lon="12.942042144757645"><ele>410.0</ele><time>2026-04-04T08:33:13Z</time></trkpt><trkpt lat="42.38869317517597" lon="12.942030033551243"><ele>409.0</ele><time>2026-04-04T08:33:14Z</time></trkpt><trkpt lat="42.38861033572177" lon="12.942012151158664"><ele>408.0</ele><time>2026-04-04T08:33:15Z</time></trkpt><trkpt lat="42.38850200819572" lon="12.941986818849138"><ele>407.0</ele><time>2026-04-04T08:33:17Z</time></trkpt><trkpt lat="42.38843843275879" lon="12.941961071030038"><ele>406.0</ele><time>2026-04-04T08:33:18Z</time></trkpt><trkpt lat="42.38836853480735" lon="12.942019328823658"><ele>405.0</ele><time>2026-04-04T08:33:19Z</time></trkpt><trkpt lat="42.38830583839177" lon="12.942065531047792"><ele>405.0</ele><time>2026-04-04T08:33:20Z</time></trkpt><trkpt lat="42.3882510125633" lon="12.942140646272906"><ele>405.0</ele><time>2026-04-04T08:33:21Z</time></trkpt><trkpt lat="42.38820412625145" lon="12.942226881167764"><ele>405.0</ele><time>2026-04-04T08:33:22Z</time></trkpt><trkpt lat="42.38815794483743" lon="12.942320127236073"><ele>405.0</ele><time>2026-04-04T08:33:23Z</time></trkpt><trkpt lat="42.38809938514479" lon="12.942395923418871"><ele>405.0</ele><time>2026-04-04T08:33:24Z</time></trkpt><trkpt lat="42.38802413116811" lon="12.942428051685445"><ele>405.0</ele><time>2026-04-04T08:33:25Z</time></trkpt><trkpt lat="42.38796465102692" lon="12.94249339803756"><ele>404.8</ele><time>2026-04-04T08:33:26Z</time></trkpt><trkpt lat="42.387884544879185" lon="12.942534127178686"><ele>404.6</ele><time>2026-04-04T08:33:27Z</time></trkpt><trkpt lat="42.38780030010787" lon="12.942584531361998"><ele>404.4</ele><time>2026-04-04T08:33:28Z</time></trkpt><trkpt lat="42.38771415269611" lon="12.94263120830305"><ele>404.2</ele><time>2026-04-04T08:33:29Z</time></trkpt><trkpt lat="42.387623748025966" lon="12.942678811492602"><ele>404.0</ele><time>2026-04-04T08:33:30Z</time></trkpt><trkpt lat="42.387527269278756" lon="12.942720600770345"><ele>404.5</ele><time>2026-04-04T08:33:31Z</time></trkpt><trkpt lat="42.387420139960355" lon="12.942773091162001"><ele>405.0</ele><time>2026-04-04T08:33:32Z</time></trkpt><trkpt lat="42.38729132308699" lon="12.942819405562073"><ele>405.5</ele><time>2026-04-04T08:33:33Z</time></trkpt><trkpt lat="42.387165147285025" lon="12.942882438781508"><ele>406.0</ele><time>2026-04-04T08:33:34Z</time></trkpt><trkpt lat="42.38705626346753" lon="12.942936833709894"><ele>406.0</ele><time>2026-04-04T08:33:35Z</time></trkpt><trkpt lat="42.38695027525748" lon="12.94299295183115"><ele>406.0</ele><time>2026-04-04T08:33:36Z</time></trkpt><trkpt lat="42.38680928521968" lon="12.943066592439648"><ele>406.0</ele><time>2026-04-04T08:33:37Z</time></trkpt><trkpt lat="42.38663317794229" lon="12.943168344220267"><ele>406.0</ele><time>2026-04-04T08:33:38Z</time></trkpt><trkpt lat="42.38650222506867" lon="12.943273552198221"><ele>406.0</ele><time>2026-04-04T08:33:39Z</time></trkpt><trkpt lat="42.38638522218315" lon="12.943324480174745"><ele>406.0</ele><time>2026-04-04T08:33:40Z</time></trkpt><trkpt lat="42.38627089883009" lon="12.943394384903868"><ele>406.0</ele><time>2026-04-04T08:33:41Z</time></trkpt><trkpt lat="42.38611897513221" lon="12.943493512603219"><ele>407.25</ele><time>2026-04-04T08:33:42Z</time></trkpt><trkpt lat="42.38596414468514" lon="12.943611290451488"><ele>408.5</ele><time>2026-04-04T08:33:43Z</time></trkpt><trkpt lat="42.38585957660178" lon="12.943700791596367"><ele>409.75</ele><time>2026-04-04T08:33:44Z</time></trkpt><trkpt lat="42.38577003742927" lon="12.943777708667135"><ele>411.0</ele><time>2026-04-04T08:33:45Z</time></trkpt><trkpt lat="42.3856835311497" lon="12.943852020347876"><ele>411.0</ele><time>2026-04-04T08:33:46Z</time></trkpt><trkpt lat="42.385595027507115" lon="12.943930481880484"><ele>411.0</ele><time>2026-04-04T08:33:47Z</time></trkpt><trkpt lat="42.385496260294126" lon="12.944021905779191"><ele>411.0</ele><time>2026-04-04T08:33:48Z</time></trkpt><trkpt lat="42.385398157293714" lon="12.944116924002348"><ele>411.0</ele><time>2026-04-04T08:33:49Z</time></trkpt><trkpt lat="42.385310560353815" lon="12.944195410024289"><ele>410.8</ele><time>2026-04-04T08:33:50Z</time></trkpt><trkpt lat="42.38523898729942" lon="12.94427633836837"><ele>410.6</ele><time>2026-04-04T08:33:51Z</time></trkpt><trkpt lat="42.385138347096934" lon="12.944314071280363"><ele>410.4</ele><time>2026-04-04T08:33:52.001Z</time></trkpt><trkpt lat="42.38502332490386" lon="12.944320664686266"><ele>410.2</ele><time>2026-04-04T08:33:53.001Z</time></trkpt><trkpt lat="42.38490374168852" lon="12.944304700511326"><ele>410.0</ele><time>2026-04-04T08:33:54.001Z</time></trkpt><trkpt lat="42.38479253038815" lon="12.944247524624327"><ele>410.0</ele><time>2026-04-04T08:33:55.001Z</time></trkpt><trkpt lat="42.38468585903163" lon="12.944242551852778"><ele>410.0</ele><time>2026-04-04T08:33:56.001Z</time></trkpt><trkpt lat="42.38457348652035" lon="12.944213094044988"><ele>410.0</ele><time>2026-04-04T08:33:57.001Z</time></trkpt><trkpt lat="42.38445522041955" lon="12.944160386768827"><ele>410.0</ele><time>2026-04-04T08:33:58.001Z</time></trkpt><trkpt lat="42.384351825122565" lon="12.944077280741682"><ele>407.8</ele><time>2026-04-04T08:33:59.001Z</time></trkpt><trkpt lat="42.384268210709834" lon="12.94395494967868"><ele>405.6</ele><time>2026-04-04T08:34:00.001Z</time></trkpt><trkpt lat="42.38417395680433" lon="12.943877812482356"><ele>403.4</ele><time>2026-04-04T08:34:01.001Z</time></trkpt><trkpt lat="42.38409269012557" lon="12.943811807040335"><ele>401.2</ele><time>2026-04-04T08:34:02.001Z</time></trkpt><trkpt lat="42.38399120328718" lon="12.943776703167053"><ele>399.0</ele><time>2026-04-04T08:34:03.001Z</time></trkpt><trkpt lat="42.383901411480295" lon="12.943730663530577"><ele>399.1666666666667</ele><time>2026-04-04T08:34:04.001Z</time></trkpt><trkpt lat="42.38383609260734" lon="12.943667348268853"><ele>399.33333333333337</ele><time>2026-04-04T08:34:05.001Z</time></trkpt><trkpt lat="42.383778713593976" lon="12.943592465601421"><ele>399.5</ele><time>2026-04-04T08:34:06.001Z</time></trkpt><trkpt lat="42.38372397472886" lon="12.943521790967695"><ele>399.6666666666667</ele><time>2026-04-04T08:34:07.001Z</time></trkpt><trkpt lat="42.38367584822332" lon="12.943461551457323"><ele>399.83333333333337</ele><time>2026-04-04T08:34:08.001Z</time></trkpt><trkpt lat="42.383598739571084" lon="12.943347631627306"><ele>400.0</ele><time>2026-04-04T08:34:10.001Z</time></trkpt><trkpt lat="42.38354353017154" lon="12.943254985338708"><ele>400.0</ele><time>2026-04-04T08:34:13Z</time></trkpt><trkpt lat="42.3834121354295" lon="12.943337793208087"><ele>400.0</ele><time>2026-04-04T08:34:15Z</time></trkpt><trkpt lat="42.383332058805216" lon="12.943348075694644"><ele>400.0</ele><time>2026-04-04T08:34:16Z</time></trkpt><trkpt lat="42.383242907485716" lon="12.943510269472544"><ele>400.0</ele><time>2026-04-04T08:34:18Z</time></trkpt><trkpt lat="42.383158150549534" lon="12.943632683698262"><ele>400.0</ele><time>2026-04-04T08:34:19Z</time></trkpt><trkpt lat="42.383069365723514" lon="12.943761697781229"><ele>400.0</ele><time>2026-04-04T08:34:20Z</time></trkpt><trkpt lat="42.383031595510026" lon="12.943843258786028"><ele>400.0</ele><time>2026-04-04T08:34:21Z</time></trkpt><trkpt lat="42.38295898724559" lon="12.943961745592368"><ele>400.0</ele><time>2026-04-04T08:34:23Z</time></trkpt><trkpt lat="42.38287663145069" lon="12.943975212572608"><ele>400.0</ele><time>2026-04-04T08:34:24Z</time></trkpt><trkpt lat="42.38279287182218" lon="12.944001959034837"><ele>404.5</ele><time>2026-04-04T08:34:25Z</time></trkpt><trkpt lat="42.38268956830487" lon="12.944014227050214"><ele>409.0</ele><time>2026-04-04T08:34:26Z</time></trkpt><trkpt lat="42.38255864600952" lon="12.944034466299831"><ele>413.5</ele><time>2026-04-04T08:34:27Z</time></trkpt><trkpt lat="42.38242819332139" lon="12.944069452894805"><ele>418.0</ele><time>2026-04-04T08:34:28Z</time></trkpt><trkpt lat="42.38229168354457" lon="12.944126542026133"><ele>420.59999999999997</ele><time>2026-04-04T08:34:29Z</time></trkpt><trkpt lat="42.38217766014864" lon="12.944194897282221"><ele>423.2</ele><time>2026-04-04T08:34:30Z</time></trkpt><trkpt lat="42.38207508491316" lon="12.944181764075184"><ele>425.8</ele><time>2026-04-04T08:34:31Z</time></trkpt><trkpt lat="42.38198340254887" lon="12.94417016083189"><ele>428.4</ele><time>2026-04-04T08:34:32Z</time></trkpt><trkpt lat="42.38190506932001" lon="12.944155145212104"><ele>431.0</ele><time>2026-04-04T08:34:33Z</time></trkpt><trkpt lat="42.38181734757387" lon="12.944140781010333"><ele>431.0</ele><time>2026-04-04T08:34:34Z</time></trkpt><trkpt lat="42.38172130836672" lon="12.944131946203925"><ele>431.0</ele><time>2026-04-04T08:34:35Z</time></trkpt><trkpt lat="42.38161888769961" lon="12.944122524359148"><ele>431.0</ele><time>2026-04-04T08:34:36Z</time></trkpt><trkpt lat="42.3815206324113" lon="12.944113485687389"><ele>431.0</ele><time>2026-04-04T08:34:37Z</time></trkpt><trkpt lat="42.381423501430405" lon="12.944102246065212"><ele>431.0</ele><time>2026-04-04T08:34:38Z</time></trkpt><trkpt lat="42.381333945645046" lon="12.944090924863065"><ele>433.8333333333333</ele><time>2026-04-04T08:34:39Z</time></trkpt><trkpt lat="42.381253227496494" lon="12.944079190062354"><ele>436.66666666666663</ele><time>2026-04-04T08:34:40Z</time></trkpt><trkpt lat="42.38117309747228" lon="12.94405637018235"><ele>439.5</ele><time>2026-04-04T08:34:41Z</time></trkpt><trkpt lat="42.38109761375416" lon="12.94401700621111"><ele>442.33333333333337</ele><time>2026-04-04T08:34:42Z</time></trkpt><trkpt lat="42.38102485769348" lon="12.943979876729893"><ele>445.1666666666667</ele><time>2026-04-04T08:34:43Z</time></trkpt><trkpt lat="42.38095807013935" lon="12.94394579313058"><ele>448.0</ele><time>2026-04-04T08:34:44Z</time></trkpt><trkpt lat="42.380897686408666" lon="12.943917160179897"><ele>448.00000000000006</ele><time>2026-04-04T08:34:45Z</time></trkpt><trkpt lat="42.38079103772684" lon="12.94392616798837"><ele>448.0</ele><time>2026-04-04T08:34:47Z</time></trkpt><trkpt lat="42.380753518877256" lon="12.944033834225738"><ele>448.0</ele><time>2026-04-04T08:34:48Z</time></trkpt><trkpt lat="42.38079785380072" lon="12.944155168795358"><ele>448.0</ele><time>2026-04-04T08:34:49Z</time></trkpt><trkpt lat="42.38079387738013" lon="12.944260835447539"><ele>448.00000000000006</ele><time>2026-04-04T08:34:50Z</time></trkpt><trkpt lat="42.3808063583658" lon="12.94435693135155"><ele>448.0</ele><time>2026-04-04T08:34:51Z</time></trkpt><trkpt lat="42.38083261359306" lon="12.944445567938004"><ele>447.6666666666667</ele><time>2026-04-04T08:34:52Z</time></trkpt><trkpt lat="42.38084705103459" lon="12.94454032733829"><ele>447.33333333333337</ele><time>2026-04-04T08:34:53Z</time></trkpt><trkpt lat="42.38084688490508" lon="12.944647160858384"><ele>447.0</ele><time>2026-04-04T08:34:54Z</time></trkpt><trkpt lat="42.3808629019819" lon="12.944765658670736"><ele>446.66666666666663</ele><time>2026-04-04T08:34:55Z</time></trkpt><trkpt lat="42.38087762961615" lon="12.94490094111608"><ele>446.3333333333333</ele><time>2026-04-04T08:34:56Z</time></trkpt><trkpt lat="42.38088602205112" lon="12.945006059082877"><ele>446.0</ele><time>2026-04-04T08:34:57Z</time></trkpt><trkpt lat="42.38089277663151" lon="12.945095493164866"><ele>445.99999999999994</ele><time>2026-04-04T08:34:58Z</time></trkpt><trkpt lat="42.38089994319731" lon="12.94518928311632"><ele>446.0</ele><time>2026-04-04T08:34:59Z</time></trkpt><trkpt lat="42.38090829389068" lon="12.945295075812568"><ele>446.0</ele><time>2026-04-04T08:35:00Z</time></trkpt><trkpt lat="42.38092428569754" lon="12.945390856627299"><ele>446.0</ele><time>2026-04-04T08:35:01Z</time></trkpt><trkpt lat="42.38092340807171" lon="12.945514836220747"><ele>445.99999999999994</ele><time>2026-04-04T08:35:03Z</time></trkpt><trkpt lat="42.38081206435638" lon="12.945580450752447"><ele>446.0</ele><time>2026-04-04T08:35:05Z</time></trkpt><trkpt lat="42.38073645035907" lon="12.945633398030463"><ele>445.99999999999994</ele><time>2026-04-04T08:35:06Z</time></trkpt><trkpt lat="42.38065650200031" lon="12.945694343446322"><ele>446.0</ele><time>2026-04-04T08:35:07Z</time></trkpt><trkpt lat="42.38059209309869" lon="12.94574624495226"><ele>446.0</ele><time>2026-04-04T08:35:08Z</time></trkpt><trkpt lat="42.38052421613472" lon="12.945802059577497"><ele>446.0</ele><time>2026-04-04T08:35:09Z</time></trkpt><trkpt lat="42.38045456287922" lon="12.945858938269694"><ele>445.99999999999994</ele><time>2026-04-04T08:35:10Z</time></trkpt><trkpt lat="42.38038077325073" lon="12.9459144310798"><ele>446.0</ele><time>2026-04-04T08:35:11Z</time></trkpt><trkpt lat="42.38030868349484" lon="12.94596561929238"><ele>445.25</ele><time>2026-04-04T08:35:12Z</time></trkpt><trkpt lat="42.38023046394767" lon="12.946019432228228"><ele>444.5</ele><time>2026-04-04T08:35:13Z</time></trkpt><trkpt lat="42.38012732266875" lon="12.946097150013815"><ele>443.75</ele><time>2026-04-04T08:35:14Z</time></trkpt><trkpt lat="42.38002822514351" lon="12.946195205333526"><ele>443.0</ele><time>2026-04-04T08:35:15Z</time></trkpt><trkpt lat="42.37990651150279" lon="12.946288401854408"><ele>443.0</ele><time>2026-04-04T08:35:16Z</time></trkpt><trkpt lat="42.37977541038172" lon="12.946371547081919"><ele>443.0</ele><time>2026-04-04T08:35:17Z</time></trkpt><trkpt lat="42.37964129226461" lon="12.94644486808677"><ele>443.0</ele><time>2026-04-04T08:35:18Z</time></trkpt><trkpt lat="42.379475759659115" lon="12.946507560418363"><ele>446.0</ele><time>2026-04-04T08:35:19Z</time></trkpt><trkpt lat="42.37932651592491" lon="12.946595381196103"><ele>449.0</ele><time>2026-04-04T08:35:20Z</time></trkpt><trkpt lat="42.37918368617163" lon="12.946680977590372"><ele>452.0</ele><time>2026-04-04T08:35:21Z</time></trkpt><trkpt lat="42.37903726978009" lon="12.946765909536001"><ele>452.0</ele><time>2026-04-04T08:35:22Z</time></trkpt><trkpt lat="42.37888197049794" lon="12.946837470540366"><ele>452.0</ele><time>2026-04-04T08:35:23Z</time></trkpt><trkpt lat="42.37874772975181" lon="12.946899785489457"><ele>452.0</ele><time>2026-04-04T08:35:24Z</time></trkpt><trkpt lat="42.378645729681224" lon="12.946940351353746"><ele>452.0</ele><time>2026-04-04T08:35:25Z</time></trkpt><trkpt lat="42.378529924929126" lon="12.946936172959088"><ele>452.6</ele><time>2026-04-04T08:35:27Z</time></trkpt><trkpt lat="42.378509085826984" lon="12.946841062654224"><ele>453.20000000000005</ele><time>2026-04-04T08:35:29Z</time></trkpt><trkpt lat="42.37866775590811" lon="12.946736595785268"><ele>453.8</ele><time>2026-04-04T08:35:31Z</time></trkpt><trkpt lat="42.37872119666849" lon="12.946647011248986"><ele>454.4</ele><time>2026-04-04T08:35:32Z</time></trkpt><trkpt lat="42.37878696481488" lon="12.946550911486762"><ele>455.0</ele><time>2026-04-04T08:35:33Z</time></trkpt><trkpt lat="42.37884547650994" lon="12.946441175422372"><ele>457.2</ele><time>2026-04-04T08:35:34Z</time></trkpt><trkpt lat="42.37891411029321" lon="12.946318908574447"><ele>459.4</ele><time>2026-04-04T08:35:35Z</time></trkpt><trkpt lat="42.378986616714975" lon="12.946199030846152"><ele>461.6</ele><time>2026-04-04T08:35:36Z</time></trkpt><trkpt lat="42.37905676430646" lon="12.946100171438356"><ele>463.8</ele><time>2026-04-04T08:35:37Z</time></trkpt><trkpt lat="42.379143732245765" lon="12.946000170128533"><ele>466.0</ele><time>2026-04-04T08:35:38Z</time></trkpt><trkpt lat="42.37925523287217" lon="12.945850757684852"><ele>465.5</ele><time>2026-04-04T08:35:39Z</time></trkpt><trkpt lat="42.379402549042815" lon="12.945709919701617"><ele>465.0</ele><time>2026-04-04T08:35:40Z</time></trkpt><trkpt lat="42.379506058012026" lon="12.945586898410614"><ele>464.5</ele><time>2026-04-04T08:35:41Z</time></trkpt><trkpt lat="42.379590509934374" lon="12.945501337897301"><ele>464.0</ele><time>2026-04-04T08:35:42Z</time></trkpt><trkpt lat="42.37968588222531" lon="12.945463039282231"><ele>464.0</ele><time>2026-04-04T08:35:43Z</time></trkpt><trkpt lat="42.37976337610119" lon="12.945395538102552"><ele>464.0</ele><time>2026-04-04T08:35:44Z</time></trkpt><trkpt lat="42.3798223241259" lon="12.945354455947871"><ele>464.0</ele><time>2026-04-04T08:35:45Z</time></trkpt><trkpt lat="42.3798402349214" lon="12.945257621840291"><ele>464.0</ele><time>2026-04-04T08:35:47Z</time></trkpt><trkpt lat="42.37970825382349" lon="12.94514401644907"><ele>464.0</ele><time>2026-04-04T08:35:49Z</time></trkpt><trkpt lat="42.37961312340123" lon="12.945098865277611"><ele>467.99999999999994</ele><time>2026-04-04T08:35:50Z</time></trkpt><trkpt lat="42.37953100068674" lon="12.945063313542562"><ele>472.0</ele><time>2026-04-04T08:35:51Z</time></trkpt><trkpt lat="42.379462178696286" lon="12.945039061329208"><ele>476.0</ele><time>2026-04-04T08:35:52Z</time></trkpt><trkpt lat="42.37938961073447" lon="12.945025948149215"><ele>480.0</ele><time>2026-04-04T08:35:53Z</time></trkpt><trkpt lat="42.37931453019609" lon="12.945056470233878"><ele>483.99999999999994</ele><time>2026-04-04T08:35:54Z</time></trkpt><trkpt lat="42.37925717734888" lon="12.94511561830995"><ele>488.0</ele><time>2026-04-04T08:35:55Z</time></trkpt><trkpt lat="42.37919879113162" lon="12.945171860397437"><ele>487.99999999999994</ele><time>2026-04-04T08:35:56Z</time></trkpt><trkpt lat="42.379139560652895" lon="12.945226689795646"><ele>488.0</ele><time>2026-04-04T08:36:16Z</time></trkpt><trkpt lat="42.37907731404296" lon="12.945285564260416"><ele>487.99999999999994</ele><time>2026-04-04T08:36:58Z</time></trkpt><trkpt lat="42.37901234958797" lon="12.945271842804036"><ele>487.99999999999994</ele><time>2026-04-04T08:37:50Z</time></trkpt><trkpt lat="42.37896260797073" lon="12.945209782082147"><ele>488.0</ele><time>2026-04-04T08:37:53Z</time></trkpt><trkpt lat="42.3789505210566" lon="12.945098416176158"><ele>487.99999999999994</ele><time>2026-04-04T08:38:58Z</time></trkpt><trkpt lat="42.378953921866206" lon="12.945005725306563"><ele>487.99999999999994</ele><time>2026-04-04T08:39:03Z</time></trkpt><trkpt lat="42.37888460955613" lon="12.945108635794167"><ele>490.3333333333333</ele><time>2026-04-04T08:40:12Z</time></trkpt><trkpt lat="42.37881820851744" lon="12.945074012308188"><ele>492.66666666666663</ele><time>2026-04-04T08:41:33Z</time></trkpt><trkpt lat="42.3787979284889" lon="12.944975035883687"><ele>495.0</ele><time>2026-04-04T08:41:40Z</time></trkpt><trkpt lat="42.378764797792435" lon="12.944874599132024"><ele>497.33333333333337</ele><time>2026-04-04T08:41:42Z</time></trkpt><trkpt lat="42.378709078533696" lon="12.94495434907217"><ele>499.6666666666667</ele><time>2026-04-04T08:41:47Z</time></trkpt><trkpt lat="42.378633831061705" lon="12.944924121541684"><ele>502.0</ele><time>2026-04-04T08:42:01Z</time></trkpt><trkpt lat="42.37857257785421" lon="12.944891605470564"><ele>505.5714285714285</ele><time>2026-04-04T08:42:05Z</time></trkpt><trkpt lat="42.37851254480394" lon="12.944853055624597"><ele>509.1428571428571</ele><time>2026-04-04T08:42:07.999Z</time></trkpt><trkpt lat="42.378466409165206" lon="12.944783022080308"><ele>512.7142857142858</ele><time>2026-04-04T08:42:09.999Z</time></trkpt><trkpt lat="42.37839609413961" lon="12.944753974387853"><ele>516.2857142857142</ele><time>2026-04-04T08:42:12.999Z</time></trkpt><trkpt lat="42.37835993484447" lon="12.944659219846471"><ele>519.8571428571429</ele><time>2026-04-04T08:42:16Z</time></trkpt><trkpt lat="42.37834660087685" lon="12.944568144541687"><ele>523.4285714285714</ele><time>2026-04-04T08:42:18Z</time></trkpt><trkpt lat="42.37832874035176" lon="12.944447776842257"><ele>527.0</ele><time>2026-04-04T08:42:21Z</time></trkpt><trkpt lat="42.378294871676516" lon="12.944371228655449"><ele>527.0000000000001</ele><time>2026-04-04T08:42:24Z</time></trkpt><trkpt lat="42.378269030716176" lon="12.944278048825584"><ele>527.0</ele><time>2026-04-04T08:42:27Z</time></trkpt><trkpt lat="42.378255702720715" lon="12.944192334214966"><ele>527.0</ele><time>2026-04-04T08:42:38Z</time></trkpt><trkpt lat="42.37825936286592" lon="12.944098842492819"><ele>527.0</ele><time>2026-04-04T08:42:54Z</time></trkpt><trkpt lat="42.37818020568174" lon="12.944049406425156"><ele>527.0</ele><time>2026-04-04T08:43:32Z</time></trkpt><trkpt lat="42.37813922410541" lon="12.943983960534824"><ele>527.0000000000001</ele><time>2026-04-04T08:44:15.999Z</time></trkpt><trkpt lat="42.3780822588403" lon="12.943933472375356"><ele>527.0</ele><time>2026-04-04T08:44:30Z</time></trkpt><trkpt lat="42.37804695418997" lon="12.943861565527538"><ele>530.4285714285714</ele><time>2026-04-04T08:45:12Z</time></trkpt><trkpt lat="42.3779960132813" lon="12.94378912065725"><ele>533.8571428571429</ele><time>2026-04-04T08:45:27Z</time></trkpt><trkpt lat="42.37801880127238" lon="12.943690250802888"><ele>537.2857142857142</ele><time>2026-04-04T08:47:53Z</time></trkpt><trkpt lat="42.378061550694696" lon="12.943578267212873"><ele>540.7142857142858</ele><time>2026-04-04T08:47:58Z</time></trkpt><trkpt lat="42.378094172165895" lon="12.943504577644044"><ele>544.1428571428571</ele><time>2026-04-04T08:48:01Z</time></trkpt><trkpt lat="42.37812750924645" lon="12.943431447680382"><ele>547.5714285714286</ele><time>2026-04-04T08:48:03Z</time></trkpt><trkpt lat="42.37816662310103" lon="12.943344803112632"><ele>551.0</ele><time>2026-04-04T08:48:07Z</time></trkpt><trkpt lat="42.378154341334564" lon="12.943254827982146"><ele>555.0</ele><time>2026-04-04T08:48:23.999Z</time></trkpt><trkpt lat="42.378120466998936" lon="12.9431541714044"><ele>559.0</ele><time>2026-04-04T08:48:27.999Z</time></trkpt><trkpt lat="42.378041873645344" lon="12.943129913848052"><ele>563.0</ele><time>2026-04-04T08:48:30.999Z</time></trkpt><trkpt lat="42.37797190292036" lon="12.943060953495602"><ele>567.0</ele><time>2026-04-04T08:48:34Z</time></trkpt><trkpt lat="42.377916052853735" lon="12.942989574217911"><ele>571.0</ele><time>2026-04-04T08:48:36Z</time></trkpt><trkpt lat="42.37786339212046" lon="12.94293164393496"><ele>575.0</ele><time>2026-04-04T08:48:39Z</time></trkpt><trkpt lat="42.37782365392845" lon="12.942860657075359"><ele>577.5</ele><time>2026-04-04T08:48:42Z</time></trkpt><trkpt lat="42.37775875170033" lon="12.942797699771438"><ele>580.0</ele><time>2026-04-04T08:48:44Z</time></trkpt><trkpt lat="42.377732176976984" lon="12.942712924832625"><ele>582.5</ele><time>2026-04-04T08:48:46Z</time></trkpt><trkpt lat="42.377663873207425" lon="12.942653678052126"><ele>585.0</ele><time>2026-04-04T08:48:48Z</time></trkpt><trkpt lat="42.37761731295736" lon="12.942585746540276"><ele>587.5</ele><time>2026-04-04T08:48:50Z</time></trkpt><trkpt lat="42.3775959770325" lon="12.9424620910946"><ele>590.0</ele><time>2026-04-04T08:48:53Z</time></trkpt><trkpt lat="42.377611069835346" lon="12.942346602546673"><ele>593.8333333333333</ele><time>2026-04-04T08:48:57Z</time></trkpt><trkpt lat="42.377628508692034" lon="12.942259139792842"><ele>597.6666666666666</ele><time>2026-04-04T08:49:03Z</time></trkpt><trkpt lat="42.37754958547378" lon="12.942303999806436"><ele>601.5</ele><time>2026-04-04T08:49:18Z</time></trkpt><trkpt lat="42.377473918083226" lon="12.94232794976701"><ele>605.3333333333334</ele><time>2026-04-04T08:49:21Z</time></trkpt><trkpt lat="42.3773809671018" lon="12.942297628173453"><ele>609.1666666666667</ele><time>2026-04-04T08:49:24Z</time></trkpt><trkpt lat="42.37731834381327" lon="12.942336586556793"><ele>613.0</ele><time>2026-04-04T08:49:35Z</time></trkpt><trkpt lat="42.377245849417925" lon="12.942319603038118"><ele>613.0</ele><time>2026-04-04T08:49:39Z</time></trkpt><trkpt lat="42.37716822001688" lon="12.942265290903668"><ele>613.0</ele><time>2026-04-04T08:49:47Z</time></trkpt><trkpt lat="42.37721667292399" lon="12.942201026095885"><ele>613.0</ele><time>2026-04-04T08:49:51Z</time></trkpt><trkpt lat="42.37728832849279" lon="12.94215443110888"><ele>613.0</ele><time>2026-04-04T08:49:55Z</time></trkpt><trkpt lat="42.37724921146095" lon="12.942083482752343"><ele>613.0</ele><time>2026-04-04T08:50:50Z</time></trkpt><trkpt lat="42.3771710548558" lon="12.942040371444147"><ele>613.0</ele><time>2026-04-04T08:50:53Z</time></trkpt><trkpt lat="42.37722515181327" lon="12.941962207141431"><ele>613.0</ele><time>2026-04-04T08:51:00Z</time></trkpt><trkpt lat="42.377275368228204" lon="12.941902856464317"><ele>613.0</ele><time>2026-04-04T08:51:03Z</time></trkpt><trkpt lat="42.37719768630478" lon="12.941852453748991"><ele>613.0</ele><time>2026-04-04T08:51:09Z</time></trkpt><trkpt lat="42.377124178894206" lon="12.941820472143865"><ele>613.0</ele><time>2026-04-04T08:51:12Z</time></trkpt><trkpt lat="42.377115283994385" lon="12.941726874968106"><ele>613.0</ele><time>2026-04-04T08:51:17Z</time></trkpt><trkpt lat="42.37717502402521" lon="12.941635858527102"><ele>613.0</ele><time>2026-04-04T08:51:21Z</time></trkpt><trkpt lat="42.377172162590796" lon="12.941520277695405"><ele>617.0</ele><time>2026-04-04T08:51:24Z</time></trkpt><trkpt lat="42.37719756594213" lon="12.941425225873855"><ele>621.0</ele><time>2026-04-04T08:51:27Z</time></trkpt><trkpt lat="42.377196390376476" lon="12.941339145516576"><ele>625.0</ele><time>2026-04-04T08:51:30Z</time></trkpt><trkpt lat="42.37721357503631" lon="12.9412454772194"><ele>629.0</ele><time>2026-04-04T08:51:33Z</time></trkpt><trkpt lat="42.37719311603172" lon="12.941152537609529"><ele>633.0</ele><time>2026-04-04T08:51:35Z</time></trkpt><trkpt lat="42.377179049362695" lon="12.941057483248992"><ele>637.0</ele><time>2026-04-04T08:51:38Z</time></trkpt><trkpt lat="42.3771531652669" lon="12.94095919905687"><ele>641.0</ele><time>2026-04-04T08:51:41Z</time></trkpt><trkpt lat="42.377137274774064" lon="12.940844510070006"><ele>647.5714285714286</ele><time>2026-04-04T08:51:44Z</time></trkpt><trkpt lat="42.377102452795555" lon="12.940763142490058"><ele>654.1428571428571</ele><time>2026-04-04T08:51:49Z</time></trkpt><trkpt lat="42.37705183212438" lon="12.940688578022096"><ele>660.7142857142858</ele><time>2026-04-04T08:52:47Z</time></trkpt><trkpt lat="42.37701020190489" lon="12.940577963203934"><ele>667.2857142857142</ele><time>2026-04-04T08:52:49Z</time></trkpt><trkpt lat="42.376941616956174" lon="12.940561765273538"><ele>673.8571428571428</ele><time>2026-04-04T08:53:37Z</time></trkpt><trkpt lat="42.37700375015118" lon="12.940548038164946"><ele>680.4285714285714</ele><time>2026-04-04T08:54:51Z</time></trkpt><trkpt lat="42.37695434198609" lon="12.940483270217436"><ele>687.0</ele><time>2026-04-04T08:55:17Z</time></trkpt><trkpt lat="42.376929183950075" lon="12.940366896866609"><ele>687.0</ele><time>2026-04-04T08:55:36Z</time></trkpt><trkpt lat="42.37688408877068" lon="12.940273738005711"><ele>687.0</ele><time>2026-04-04T08:55:38Z</time></trkpt><trkpt lat="42.37686381072338" lon="12.940183109738566"><ele>687.0</ele><time>2026-04-04T08:55:40Z</time></trkpt><trkpt lat="42.37681872592723" lon="12.940067724719643"><ele>687.0</ele><time>2026-04-04T08:55:42Z</time></trkpt><trkpt lat="42.37678485773391" lon="12.939976752927107"><ele>687.0</ele><time>2026-04-04T08:55:44Z</time></trkpt><trkpt lat="42.376734466166155" lon="12.939902690890836"><ele>687.0</ele><time>2026-04-04T08:56:49.999Z</time></trkpt><trkpt lat="42.376728002032586" lon="12.939795512454948"><ele>688.8571428571429</ele><time>2026-04-04T08:56:51.999Z</time></trkpt><trkpt lat="42.37668921063631" lon="12.939721701192726"><ele>690.7142857142857</ele><time>2026-04-04T08:56:53.999Z</time></trkpt><trkpt lat="42.37663238395084" lon="12.9396315468127"><ele>692.5714285714286</ele><time>2026-04-04T08:56:56Z</time></trkpt><trkpt lat="42.376607739240704" lon="12.939551852907755"><ele>694.4285714285714</ele><time>2026-04-04T08:56:57Z</time></trkpt><trkpt lat="42.376594333088654" lon="12.9394569064801"><ele>696.2857142857142</ele><time>2026-04-04T08:57:00Z</time></trkpt><trkpt lat="42.37656414915655" lon="12.939369476764744"><ele>698.1428571428571</ele><time>2026-04-04T08:57:04Z</time></trkpt><trkpt lat="42.37651809355552" lon="12.939269551627726"><ele>700.0</ele><time>2026-04-04T08:57:07Z</time></trkpt><trkpt lat="42.37645395679644" lon="12.93918250143548"><ele>700.0</ele><time>2026-04-04T08:57:09Z</time></trkpt><trkpt lat="42.376405410478" lon="12.939044928657045"><ele>700.0</ele><time>2026-04-04T08:57:11Z</time></trkpt><trkpt lat="42.37636597364453" lon="12.938954174098807"><ele>700.0</ele><time>2026-04-04T08:57:12Z</time></trkpt><trkpt lat="42.37629911777891" lon="12.938882394401821"><ele>700.0</ele><time>2026-04-04T08:57:13Z</time></trkpt><trkpt lat="42.37624648498802" lon="12.93881085844121"><ele>700.0</ele><time>2026-04-04T08:57:14Z</time></trkpt><trkpt lat="42.37619031376879" lon="12.938758322559062"><ele>700.0</ele><time>2026-04-04T08:57:17Z</time></trkpt><trkpt lat="42.376166998292014" lon="12.938677667859684"><ele>701.0</ele><time>2026-04-04T08:57:22Z</time></trkpt><trkpt lat="42.37617326934728" lon="12.938577169724528"><ele>702.0</ele><time>2026-04-04T08:58:28Z</time></trkpt><trkpt lat="42.3761459303236" lon="12.938480144240089"><ele>703.0</ele><time>2026-04-04T08:58:34Z</time></trkpt><trkpt lat="42.376109713299265" lon="12.938404731272644"><ele>704.0</ele><time>2026-04-04T08:58:37Z</time></trkpt><trkpt lat="42.376090553600555" lon="12.938294256095583"><ele>705.0</ele><time>2026-04-04T08:58:41Z</time></trkpt><trkpt lat="42.37609643275594" lon="12.938186885890172"><ele>706.0</ele><time>2026-04-04T08:58:44.999Z</time></trkpt><trkpt lat="42.37611681134149" lon="12.938104764111221"><ele>707.0</ele><time>2026-04-04T08:59:19Z</time></trkpt><trkpt lat="42.37612912418826" lon="12.937997056496021"><ele>710.8333333333333</ele><time>2026-04-04T08:59:21Z</time></trkpt><trkpt lat="42.376127050405884" lon="12.937889143990146"><ele>714.6666666666666</ele><time>2026-04-04T08:59:22Z</time></trkpt><trkpt lat="42.37613644671988" lon="12.937731952879023"><ele>718.5</ele><time>2026-04-04T08:59:24Z</time></trkpt><trkpt lat="42.3761663636044" lon="12.93761560809111"><ele>722.3333333333334</ele><time>2026-04-04T08:59:26Z</time></trkpt><trkpt lat="42.37620161688874" lon="12.937536258529974"><ele>726.1666666666667</ele><time>2026-04-04T08:59:29Z</time></trkpt><trkpt lat="42.376115093048085" lon="12.937535697300572"><ele>730.0</ele><time>2026-04-04T08:59:32Z</time></trkpt><trkpt lat="42.376035182017375" lon="12.9375531432955"><ele>730.0</ele><time>2026-04-04T08:59:33Z</time></trkpt><trkpt lat="42.375969023836305" lon="12.937573273206809"><ele>730.0</ele><time>2026-04-04T08:59:34Z</time></trkpt><trkpt lat="42.37590931331059" lon="12.937604559024882"><ele>730.0</ele><time>2026-04-04T08:59:35Z</time></trkpt><trkpt lat="42.375834045384615" lon="12.937640444793288"><ele>730.0</ele><time>2026-04-04T08:59:36Z</time></trkpt><trkpt lat="42.3757168227352" lon="12.937605441266252"><ele>730.0</ele><time>2026-04-04T08:59:38Z</time></trkpt><trkpt lat="42.37563773338582" lon="12.937619786494164"><ele>730.0</ele><time>2026-04-04T08:59:40Z</time></trkpt><trkpt lat="42.37555220609857" lon="12.937653795843346"><ele>734.4</ele><time>2026-04-04T08:59:48Z</time></trkpt><trkpt lat="42.375469335239195" lon="12.937702765398907"><ele>738.8</ele><time>2026-04-04T08:59:50Z</time></trkpt><trkpt lat="42.37539462593509" lon="12.937748887498234"><ele>743.2</ele><time>2026-04-04T08:59:51Z</time></trkpt><trkpt lat="42.37531025684355" lon="12.937790993126761"><ele>747.6</ele><time>2026-04-04T08:59:52Z</time></trkpt><trkpt lat="42.37522678111239" lon="12.937842204861486"><ele>752.0</ele><time>2026-04-04T08:59:53Z</time></trkpt><trkpt lat="42.37512972697279" lon="12.937909672292395"><ele>752.0</ele><time>2026-04-04T08:59:54Z</time></trkpt><trkpt lat="42.375035590106975" lon="12.937979020512394"><ele>752.0</ele><time>2026-04-04T08:59:55Z</time></trkpt><trkpt lat="42.37495682184632" lon="12.938008255972576"><ele>752.0</ele><time>2026-04-04T08:59:56Z</time></trkpt><trkpt lat="42.37482401177857" lon="12.938058722132613"><ele>752.0</ele><time>2026-04-04T08:59:58Z</time></trkpt><trkpt lat="42.37475464863981" lon="12.938087313397547"><ele>752.0</ele><time>2026-04-04T08:59:59Z</time></trkpt><trkpt lat="42.374668326881526" lon="12.938119061425263"><ele>754.1666666666666</ele><time>2026-04-04T09:00:00Z</time></trkpt><trkpt lat="42.37459012035194" lon="12.938155941986766"><ele>756.3333333333333</ele><time>2026-04-04T09:00:01Z</time></trkpt><trkpt lat="42.374529483759986" lon="12.938181056286584"><ele>758.5</ele><time>2026-04-04T09:00:02Z</time></trkpt><trkpt lat="42.374479784891776" lon="12.938233480225255"><ele>760.6666666666666</ele><time>2026-04-04T09:00:03Z</time></trkpt><trkpt lat="42.37438163604199" lon="12.938304045400999"><ele>762.8333333333334</ele><time>2026-04-04T09:00:05Z</time></trkpt><trkpt lat="42.37433980372879" lon="12.9383730178065"><ele>765.0</ele><time>2026-04-04T09:00:06Z</time></trkpt><trkpt lat="42.37428498971597" lon="12.938439205498966"><ele>765.0</ele><time>2026-04-04T09:00:07Z</time></trkpt><trkpt lat="42.37421802944746" lon="12.938514251195606"><ele>765.0</ele><time>2026-04-04T09:00:08Z</time></trkpt><trkpt lat="42.37415133653535" lon="12.938571052400036"><ele>765.0</ele><time>2026-04-04T09:00:09Z</time></trkpt><trkpt lat="42.374039766144065" lon="12.938626477775303"><ele>765.0</ele><time>2026-04-04T09:00:11Z</time></trkpt><trkpt lat="42.373912362621326" lon="12.938699329318444"><ele>765.0</ele><time>2026-04-04T09:00:13Z</time></trkpt><trkpt lat="42.37382494127086" lon="12.938743096368281"><ele>769.4285714285714</ele><time>2026-04-04T09:00:14Z</time></trkpt><trkpt lat="42.37375839245291" lon="12.938775671016677"><ele>773.8571428571429</ele><time>2026-04-04T09:00:15Z</time></trkpt><trkpt lat="42.37370578853085" lon="12.938824767791816"><ele>778.2857142857142</ele><time>2026-04-04T09:00:16Z</time></trkpt><trkpt lat="42.37363894719043" lon="12.938886418074036"><ele>782.7142857142858</ele><time>2026-04-04T09:00:17Z</time></trkpt><trkpt lat="42.373579901496214" lon="12.938928162571894"><ele>787.1428571428571</ele><time>2026-04-04T09:00:18Z</time></trkpt><trkpt lat="42.37349631639367" lon="12.938953278329938"><ele>791.5714285714286</ele><time>2026-04-04T09:00:19Z</time></trkpt><trkpt lat="42.37341578390499" lon="12.938969581216925"><ele>796.0</ele><time>2026-04-04T09:00:20Z</time></trkpt><trkpt lat="42.37332816397614" lon="12.93899023549888"><ele>795.9999999999999</ele><time>2026-04-04T09:00:21Z</time></trkpt><trkpt lat="42.37324085450948" lon="12.939012660323506"><ele>796.0</ele><time>2026-04-04T09:00:22Z</time></trkpt><trkpt lat="42.373161622738245" lon="12.939043058673912"><ele>796.0</ele><time>2026-04-04T09:00:23Z</time></trkpt><trkpt lat="42.37309211982704" lon="12.939073102317968"><ele>796.0</ele><time>2026-04-04T09:00:24Z</time></trkpt><trkpt lat="42.37302697968484" lon="12.939086476399227"><ele>795.9999999999999</ele><time>2026-04-04T09:00:25Z</time></trkpt><trkpt lat="42.37294675464237" lon="12.939091334226509"><ele>796.0</ele><time>2026-04-04T09:00:27Z</time></trkpt><trkpt lat="42.372807435053325" lon="12.939181427433684"><ele>798.4</ele><time>2026-04-04T09:00:29Z</time></trkpt><trkpt lat="42.37271465708582" lon="12.93921400169416"><ele>800.8</ele><time>2026-04-04T09:00:30Z</time></trkpt><trkpt lat="42.372640819763014" lon="12.939243480511816"><ele>803.1999999999999</ele><time>2026-04-04T09:00:31Z</time></trkpt><trkpt lat="42.37256455545165" lon="12.93929766233235"><ele>805.5999999999999</ele><time>2026-04-04T09:00:33Z</time></trkpt><trkpt lat="42.372480052014" lon="12.939380141783118"><ele>808.0</ele><time>2026-04-04T09:00:35Z</time></trkpt><trkpt lat="42.37242363518053" lon="12.939484547659141"><ele>807.9999999999999</ele><time>2026-04-04T09:05:34Z</time></trkpt><trkpt lat="42.37240848376395" lon="12.939629675408218"><ele>808.0</ele><time>2026-04-04T09:05:36Z</time></trkpt><trkpt lat="42.37239498947896" lon="12.939714453989538"><ele>808.0</ele><time>2026-04-04T09:05:37Z</time></trkpt><trkpt lat="42.37237762327124" lon="12.939798918606728"><ele>808.0</ele><time>2026-04-04T09:05:38Z</time></trkpt><trkpt lat="42.37232762450057" lon="12.939876387886835"><ele>807.9999999999999</ele><time>2026-04-04T09:05:39Z</time></trkpt><trkpt lat="42.372323929455284" lon="12.939977046092425"><ele>808.0</ele><time>2026-04-04T09:05:40Z</time></trkpt><trkpt lat="42.37232161535808" lon="12.940073075880482"><ele>807.1666666666666</ele><time>2026-04-04T09:05:41Z</time></trkpt><trkpt lat="42.372317196069865" lon="12.940178614103948"><ele>806.3333333333333</ele><time>2026-04-04T09:05:42Z</time></trkpt><trkpt lat="42.372312078463366" lon="12.940289834301744"><ele>805.5</ele><time>2026-04-04T09:05:43Z</time></trkpt><trkpt lat="42.37230643224841" lon="12.940409887423929"><ele>804.6666666666667</ele><time>2026-04-04T09:05:44Z</time></trkpt><trkpt lat="42.372302625273605" lon="12.940520073286303"><ele>803.8333333333334</ele><time>2026-04-04T09:05:45Z</time></trkpt><trkpt lat="42.372297479135845" lon="12.94062815949746"><ele>803.0</ele><time>2026-04-04T09:05:46Z</time></trkpt><trkpt lat="42.372286903127524" lon="12.940733444811531"><ele>803.0000000000001</ele><time>2026-04-04T09:05:47Z</time></trkpt><trkpt lat="42.3722729477133" lon="12.940829196825993"><ele>803.0</ele><time>2026-04-04T09:05:48Z</time></trkpt><trkpt lat="42.372256429971245" lon="12.940921924526293"><ele>803.0</ele><time>2026-04-04T09:05:49Z</time></trkpt><trkpt lat="42.37223245989406" lon="12.941022628224394"><ele>803.0</ele><time>2026-04-04T09:05:50Z</time></trkpt><trkpt lat="42.37219961519861" lon="12.941124436598626"><ele>803.0000000000001</ele><time>2026-04-04T09:05:51Z</time></trkpt><trkpt lat="42.37216042866014" lon="12.941222846446053"><ele>803.0</ele><time>2026-04-04T09:05:52Z</time></trkpt><trkpt lat="42.372118791675085" lon="12.941310826910714"><ele>804.1666666666667</ele><time>2026-04-04T09:05:53Z</time></trkpt><trkpt lat="42.37207463417398" lon="12.94140054550923"><ele>805.3333333333334</ele><time>2026-04-04T09:05:54Z</time></trkpt><trkpt lat="42.372026321586674" lon="12.941484211165166"><ele>806.5</ele><time>2026-04-04T09:05:55Z</time></trkpt><trkpt lat="42.37197102062849" lon="12.941563858684173"><ele>807.6666666666667</ele><time>2026-04-04T09:05:56Z</time></trkpt><trkpt lat="42.371909916441815" lon="12.94163909442244"><ele>808.8333333333334</ele><time>2026-04-04T09:05:57Z</time></trkpt><trkpt lat="42.37184214099892" lon="12.941714110796363"><ele>810.0</ele><time>2026-04-04T09:05:58Z</time></trkpt><trkpt lat="42.37177127756859" lon="12.941777752291818"><ele>810.6666666666666</ele><time>2026-04-04T09:05:59Z</time></trkpt><trkpt lat="42.37169503608008" lon="12.941800454695057"><ele>811.3333333333333</ele><time>2026-04-04T09:06:00Z</time></trkpt><trkpt lat="42.371606241121306" lon="12.941812573028354"><ele>812.0</ele><time>2026-04-04T09:06:01Z</time></trkpt><trkpt lat="42.371510046400836" lon="12.941824776847335"><ele>812.6666666666666</ele><time>2026-04-04T09:06:02Z</time></trkpt><trkpt lat="42.37140794194662" lon="12.941850088597624"><ele>813.3333333333333</ele><time>2026-04-04T09:06:03Z</time></trkpt><trkpt lat="42.3713351825106" lon="12.94188110779001"><ele>814.0</ele><time>2026-04-04T09:06:04Z</time></trkpt><trkpt lat="42.371239304791494" lon="12.941976454650387"><ele>813.9999999999999</ele><time>2026-04-04T09:06:05Z</time></trkpt><trkpt lat="42.37118962525195" lon="12.942081633452128"><ele>814.0</ele><time>2026-04-04T09:06:06Z</time></trkpt><trkpt lat="42.37113829631081" lon="12.942163279894475"><ele>814.0</ele><time>2026-04-04T09:06:07Z</time></trkpt><trkpt lat="42.37108251860491" lon="12.942233338038553"><ele>814.0</ele><time>2026-04-04T09:06:08Z</time></trkpt><trkpt lat="42.37102126847377" lon="12.942297684052614"><ele>813.9999999999999</ele><time>2026-04-04T09:06:09Z</time></trkpt><trkpt lat="42.370957557097704" lon="12.942360605637822"><ele>814.0</ele><time>2026-04-04T09:06:10Z</time></trkpt><trkpt lat="42.370888749530494" lon="12.942423950953533"><ele>813.9999999999999</ele><time>2026-04-04T09:06:11Z</time></trkpt><trkpt lat="42.37081379554801" lon="12.942490953774257"><ele>814.0</ele><time>2026-04-04T09:06:12Z</time></trkpt><trkpt lat="42.37074348830612" lon="12.942560913237395"><ele>814.0</ele><time>2026-04-04T09:06:13Z</time></trkpt><trkpt lat="42.37068762573976" lon="12.942651126662438"><ele>814.0</ele><time>2026-04-04T09:06:14Z</time></trkpt><trkpt lat="42.370658804889516" lon="12.942776936456013"><ele>813.9999999999999</ele><time>2026-04-04T09:06:15Z</time></trkpt><trkpt lat="42.3706292159609" lon="12.942882741837547"><ele>814.0</ele><time>2026-04-04T09:06:16Z</time></trkpt><trkpt lat="42.37059249966238" lon="12.943008373309276"><ele>812.6</ele><time>2026-04-04T09:06:17Z</time></trkpt><trkpt lat="42.370562040605066" lon="12.94312676762236"><ele>811.2</ele><time>2026-04-04T09:06:18Z</time></trkpt><trkpt lat="42.37053974723562" lon="12.943256393626756"><ele>809.8000000000001</ele><time>2026-04-04T09:06:19Z</time></trkpt><trkpt lat="42.37051854110433" lon="12.943396781584923"><ele>808.4000000000001</ele><time>2026-04-04T09:06:20Z</time></trkpt><trkpt lat="42.37052719073568" lon="12.943528581500827"><ele>807.0</ele><time>2026-04-04T09:06:21Z</time></trkpt><trkpt lat="42.37048788929415" lon="12.943638101018534"><ele>810.8</ele><time>2026-04-04T09:06:22Z</time></trkpt><trkpt lat="42.37044105414127" lon="12.94373353249303"><ele>814.6</ele><time>2026-04-04T09:06:23Z</time></trkpt><trkpt lat="42.370385952727375" lon="12.94382387680999"><ele>818.4</ele><time>2026-04-04T09:06:24Z</time></trkpt><trkpt lat="42.37028337686789" lon="12.943824004636285"><ele>822.1999999999999</ele><time>2026-04-04T09:06:25Z</time></trkpt><trkpt lat="42.37015211926639" lon="12.943836122047761"><ele>826.0</ele><time>2026-04-04T09:06:27Z</time></trkpt><trkpt lat="42.37008296805404" lon="12.943842454497174"><ele>825.9999999999999</ele><time>2026-04-04T09:06:28Z</time></trkpt><trkpt lat="42.36999601377155" lon="12.943855227867003"><ele>826.0</ele><time>2026-04-04T09:06:29Z</time></trkpt><trkpt lat="42.36991735504786" lon="12.943895539571315"><ele>826.0</ele><time>2026-04-04T09:06:30Z</time></trkpt><trkpt lat="42.36985087218473" lon="12.94394662032518"><ele>826.0</ele><time>2026-04-04T09:06:31Z</time></trkpt><trkpt lat="42.36977500863207" lon="12.943998435788455"><ele>825.9999999999999</ele><time>2026-04-04T09:06:32Z</time></trkpt><trkpt lat="42.3696973100791" lon="12.944051504397661"><ele>826.0</ele><time>2026-04-04T09:06:33Z</time></trkpt><trkpt lat="42.369619451512825" lon="12.94408707195546"><ele>827.8333333333333</ele><time>2026-04-04T09:06:34Z</time></trkpt><trkpt lat="42.36953919395038" lon="12.944091557288434"><ele>829.6666666666666</ele><time>2026-04-04T09:06:35Z</time></trkpt><trkpt lat="42.36946636802819" lon="12.944054394841881"><ele>831.5</ele><time>2026-04-04T09:06:36Z</time></trkpt><trkpt lat="42.36938452266865" lon="12.944015718897916"><ele>833.3333333333333</ele><time>2026-04-04T09:06:37Z</time></trkpt><trkpt lat="42.36931132822698" lon="12.943955389126385"><ele>835.1666666666666</ele><time>2026-04-04T09:06:38Z</time></trkpt><trkpt lat="42.369246715580715" lon="12.943883020276713"><ele>837.0</ele><time>2026-04-04T09:06:39Z</time></trkpt><trkpt lat="42.36917835125524" lon="12.943813924309309"><ele>837.0</ele><time>2026-04-04T09:06:40Z</time></trkpt><trkpt lat="42.36913652010378" lon="12.943717273819734"><ele>837.0</ele><time>2026-04-04T09:06:41Z</time></trkpt><trkpt lat="42.36913832834373" lon="12.94361684179483"><ele>837.0</ele><time>2026-04-04T09:06:42Z</time></trkpt><trkpt lat="42.36913212437337" lon="12.943517845690922"><ele>837.0</ele><time>2026-04-04T09:06:43Z</time></trkpt><trkpt lat="42.36900678408719" lon="12.943568442177513"><ele>837.0</ele><time>2026-04-04T09:06:47Z</time></trkpt><trkpt lat="42.36899137300701" lon="12.943728570975608"><ele>837.0</ele><time>2026-04-04T09:06:49Z</time></trkpt><trkpt lat="42.368956819859086" lon="12.943825220653608"><ele>837.0</ele><time>2026-04-04T09:06:50Z</time></trkpt><trkpt lat="42.36892443085564" lon="12.943925400984202"><ele>837.0</ele><time>2026-04-04T09:06:51Z</time></trkpt><trkpt lat="42.36888371319915" lon="12.944026793797008"><ele>837.0</ele><time>2026-04-04T09:06:52Z</time></trkpt><trkpt lat="42.36883214983504" lon="12.94411962891224"><ele>837.0</ele><time>2026-04-04T09:06:53Z</time></trkpt><trkpt lat="42.36876049072632" lon="12.94419145691638"><ele>837.0</ele><time>2026-04-04T09:06:54Z</time></trkpt><trkpt lat="42.36867612663535" lon="12.944256736961593"><ele>835.4000000000001</ele><time>2026-04-04T09:06:55Z</time></trkpt><trkpt lat="42.36859573676858" lon="12.944325656459728"><ele>833.8000000000001</ele><time>2026-04-04T09:06:56Z</time></trkpt><trkpt lat="42.36852215854864" lon="12.944400333030561"><ele>832.2</ele><time>2026-04-04T09:06:56.999Z</time></trkpt><trkpt lat="42.368463132667635" lon="12.944516572942124"><ele>830.6</ele><time>2026-04-04T09:06:57.999Z</time></trkpt><trkpt lat="42.36842363365284" lon="12.944648733502701"><ele>829.0</ele><time>2026-04-04T09:06:58.999Z</time></trkpt><trkpt lat="42.368396847360444" lon="12.944793881077228"><ele>829.0</ele><time>2026-04-04T09:06:59.999Z</time></trkpt><trkpt lat="42.36838015859338" lon="12.944929685876453"><ele>829.0</ele><time>2026-04-04T09:07:00.999Z</time></trkpt><trkpt lat="42.36838786193254" lon="12.945063867185214"><ele>829.0</ele><time>2026-04-04T09:07:01.999Z</time></trkpt><trkpt lat="42.36838786428011" lon="12.94520160540284"><ele>829.0</ele><time>2026-04-04T09:07:02.999Z</time></trkpt><trkpt lat="42.36840022433653" lon="12.945341606243272"><ele>829.0</ele><time>2026-04-04T09:07:03.999Z</time></trkpt><trkpt lat="42.36841882863579" lon="12.945479999628702"><ele>828.8000000000001</ele><time>2026-04-04T09:07:04.999Z</time></trkpt><trkpt lat="42.368411947576824" lon="12.945620363107366"><ele>828.6</ele><time>2026-04-04T09:07:05.999Z</time></trkpt><trkpt lat="42.36841686595973" lon="12.94575983558445"><ele>828.4</ele><time>2026-04-04T09:07:06.999Z</time></trkpt><trkpt lat="42.36843960495183" lon="12.945899520994887"><ele>828.2</ele><time>2026-04-04T09:07:07.999Z</time></trkpt><trkpt lat="42.36844987766312" lon="12.946038005026374"><ele>828.0</ele><time>2026-04-04T09:07:08.999Z</time></trkpt><trkpt lat="42.36846618462762" lon="12.946182069116333"><ele>828.0</ele><time>2026-04-04T09:07:09.999Z</time></trkpt><trkpt lat="42.36847812246814" lon="12.946320544805618"><ele>828.0</ele><time>2026-04-04T09:07:10.999Z</time></trkpt><trkpt lat="42.36845434701624" lon="12.946456154574147"><ele>828.0</ele><time>2026-04-04T09:07:11.999Z</time></trkpt><trkpt lat="42.36843370829885" lon="12.946597566251198"><ele>828.0</ele><time>2026-04-04T09:07:12.999Z</time></trkpt><trkpt lat="42.36841743173557" lon="12.946733766032457"><ele>828.0</ele><time>2026-04-04T09:07:13.999Z</time></trkpt><trkpt lat="42.36841540926259" lon="12.946869858653097"><ele>828.8</ele><time>2026-04-04T09:07:14.999Z</time></trkpt><trkpt lat="42.36837732457052" lon="12.947004101659248"><ele>829.5999999999999</ele><time>2026-04-04T09:07:15.999Z</time></trkpt><trkpt lat="42.36834102918367" lon="12.947128051240504"><ele>830.4000000000001</ele><time>2026-04-04T09:07:16.999Z</time></trkpt><trkpt lat="42.36830046442039" lon="12.947247197268325"><ele>831.2</ele><time>2026-04-04T09:07:17.999Z</time></trkpt><trkpt lat="42.36825920726993" lon="12.947363906925414"><ele>832.0</ele><time>2026-04-04T09:07:18.999Z</time></trkpt><trkpt lat="42.36822613146292" lon="12.947474223233922"><ele>832.8333333333333</ele><time>2026-04-04T09:07:19.999Z</time></trkpt><trkpt lat="42.36821963864373" lon="12.947589403452696"><ele>833.6666666666666</ele><time>2026-04-04T09:07:20.999Z</time></trkpt><trkpt lat="42.368202394091455" lon="12.947682083705681"><ele>834.5</ele><time>2026-04-04T09:07:22.999Z</time></trkpt><trkpt lat="42.36820698658667" lon="12.94781782196993"><ele>835.3333333333333</ele><time>2026-04-04T09:07:34Z</time></trkpt><trkpt lat="42.368209380527226" lon="12.947938237128742"><ele>836.1666666666666</ele><time>2026-04-04T09:07:35Z</time></trkpt><trkpt lat="42.368210747609474" lon="12.948052187493362"><ele>837.0</ele><time>2026-04-04T09:07:36Z</time></trkpt><trkpt lat="42.3682066890171" lon="12.948164336898701"><ele>837.0</ele><time>2026-04-04T09:07:37Z</time></trkpt><trkpt lat="42.368178634481325" lon="12.948273234239537"><ele>837.0</ele><time>2026-04-04T09:07:38Z</time></trkpt><trkpt lat="42.368134910712946" lon="12.948382381630248"><ele>837.0</ele><time>2026-04-04T09:07:39Z</time></trkpt><trkpt lat="42.36808091940215" lon="12.948496314955008"><ele>837.0</ele><time>2026-04-04T09:07:40Z</time></trkpt><trkpt lat="42.36804240004346" lon="12.948598995923557"><ele>837.0</ele><time>2026-04-04T09:07:41Z</time></trkpt><trkpt lat="42.36800856059066" lon="12.948704538480756"><ele>837.0</ele><time>2026-04-04T09:07:42Z</time></trkpt><trkpt lat="42.367976025559564" lon="12.948812231090221"><ele>836.8333333333334</ele><time>2026-04-04T09:07:43Z</time></trkpt><trkpt lat="42.36794587985732" lon="12.948920572385502"><ele>836.6666666666667</ele><time>2026-04-04T09:07:44Z</time></trkpt><trkpt lat="42.36791324860662" lon="12.9490378465224"><ele>836.5</ele><time>2026-04-04T09:07:45Z</time></trkpt><trkpt lat="42.36787842848535" lon="12.949146193860102"><ele>836.3333333333334</ele><time>2026-04-04T09:07:46Z</time></trkpt><trkpt lat="42.367846761856555" lon="12.949252176129686"><ele>836.1666666666667</ele><time>2026-04-04T09:07:47Z</time></trkpt><trkpt lat="42.367827663795" lon="12.94934403182047"><ele>836.0</ele><time>2026-04-04T09:07:48Z</time></trkpt><trkpt lat="42.367832771770814" lon="12.949446243027921"><ele>836.0000000000001</ele><time>2026-04-04T09:07:49Z</time></trkpt><trkpt lat="42.36781297883402" lon="12.949542394350585"><ele>836.0</ele><time>2026-04-04T09:07:50Z</time></trkpt><trkpt lat="42.36780889958488" lon="12.94966928986516"><ele>836.0</ele><time>2026-04-04T09:07:51Z</time></trkpt><trkpt lat="42.367804373405576" lon="12.949803000560697"><ele>836.0</ele><time>2026-04-04T09:07:52Z</time></trkpt><trkpt lat="42.36780022170666" lon="12.949925648704525"><ele>836.0000000000001</ele><time>2026-04-04T09:07:53Z</time></trkpt><trkpt lat="42.36779620351062" lon="12.950044352641877"><ele>836.0</ele><time>2026-04-04T09:07:54Z</time></trkpt><trkpt lat="42.36779449695385" lon="12.950164836419388"><ele>835.4</ele><time>2026-04-04T09:07:55Z</time></trkpt><trkpt lat="42.367794187359586" lon="12.950288146406486"><ele>834.8</ele><time>2026-04-04T09:07:56Z</time></trkpt><trkpt lat="42.36779388397636" lon="12.950408983398235"><ele>834.1999999999999</ele><time>2026-04-04T09:07:57Z</time></trkpt><trkpt lat="42.367793564490064" lon="12.950536233894736"><ele>833.5999999999999</ele><time>2026-04-04T09:07:58Z</time></trkpt><trkpt lat="42.367805221474" lon="12.950660564204489"><ele>833.0</ele><time>2026-04-04T09:07:59Z</time></trkpt><trkpt lat="42.36780233120506" lon="12.950785121607861"><ele>832.4</ele><time>2026-04-04T09:08:00Z</time></trkpt><trkpt lat="42.367808214663526" lon="12.950906756894238"><ele>831.8</ele><time>2026-04-04T09:08:01Z</time></trkpt><trkpt lat="42.36781907389519" lon="12.951032833235514"><ele>831.2</ele><time>2026-04-04T09:08:02Z</time></trkpt><trkpt lat="42.36782810305605" lon="12.951158470977386"><ele>830.6</ele><time>2026-04-04T09:08:03Z</time></trkpt><trkpt lat="42.367829124785594" lon="12.951275956889495"><ele>830.0</ele><time>2026-04-04T09:08:04Z</time></trkpt><trkpt lat="42.36777597006449" lon="12.95136735215343"><ele>830.0</ele><time>2026-04-04T09:08:05Z</time></trkpt><trkpt lat="42.36771526293775" lon="12.951429786575872"><ele>830.0</ele><time>2026-04-04T09:08:06Z</time></trkpt><trkpt lat="42.367651290526055" lon="12.95151718425162"><ele>830.0</ele><time>2026-04-04T09:08:07Z</time></trkpt><trkpt lat="42.367582599033724" lon="12.951610637870054"><ele>830.0</ele><time>2026-04-04T09:08:08Z</time></trkpt><trkpt lat="42.36750894468934" lon="12.951707836179802"><ele>830.0</ele><time>2026-04-04T09:08:09Z</time></trkpt><trkpt lat="42.36743658315805" lon="12.951832155096511"><ele>830.2</ele><time>2026-04-04T09:08:10Z</time></trkpt><trkpt lat="42.367379179942624" lon="12.951954161201154"><ele>830.4</ele><time>2026-04-04T09:08:11Z</time></trkpt><trkpt lat="42.367326975955564" lon="12.952081678921664"><ele>830.5999999999999</ele><time>2026-04-04T09:08:12Z</time></trkpt><trkpt lat="42.367274682516346" lon="12.95220685173743"><ele>830.8</ele><time>2026-04-04T09:08:13Z</time></trkpt><trkpt lat="42.36722211847241" lon="12.95232089517949"><ele>831.0</ele><time>2026-04-04T09:08:14Z</time></trkpt><trkpt lat="42.36717674134371" lon="12.952451126028102"><ele>831.8</ele><time>2026-04-04T09:08:15Z</time></trkpt><trkpt lat="42.36715032992119" lon="12.952584120706586"><ele>832.5999999999999</ele><time>2026-04-04T09:08:16Z</time></trkpt><trkpt lat="42.36713025158496" lon="12.95271574036239"><ele>833.4</ele><time>2026-04-04T09:08:17Z</time></trkpt><trkpt lat="42.367113084428574" lon="12.952838726840655"><ele>834.2</ele><time>2026-04-04T09:08:18Z</time></trkpt><trkpt lat="42.36708791334997" lon="12.952951414355883"><ele>835.0</ele><time>2026-04-04T09:08:19Z</time></trkpt><trkpt lat="42.367060799602804" lon="12.953063423165244"><ele>834.9999999999999</ele><time>2026-04-04T09:08:20Z</time></trkpt><trkpt lat="42.36702969869417" lon="12.953191719257923"><ele>835.0</ele><time>2026-04-04T09:08:21Z</time></trkpt><trkpt lat="42.366997886194255" lon="12.953311818402767"><ele>835.0</ele><time>2026-04-04T09:08:22Z</time></trkpt><trkpt lat="42.366966742066126" lon="12.953423327927934"><ele>835.0</ele><time>2026-04-04T09:08:23Z</time></trkpt><trkpt lat="42.36693276990992" lon="12.953521339868368"><ele>834.9999999999999</ele><time>2026-04-04T09:08:24Z</time></trkpt><trkpt lat="42.366888791919756" lon="12.953613156047092"><ele>835.0</ele><time>2026-04-04T09:08:25Z</time></trkpt><trkpt lat="42.36683079819592" lon="12.953679705853054"><ele>836.4</ele><time>2026-04-04T09:08:26Z</time></trkpt><trkpt lat="42.36676301106256" lon="12.953758540522173"><ele>837.8</ele><time>2026-04-04T09:08:27Z</time></trkpt><trkpt lat="42.366697632466106" lon="12.953842213887453"><ele>839.2</ele><time>2026-04-04T09:08:28Z</time></trkpt><trkpt lat="42.36666272404474" lon="12.953967592852688"><ele>840.6</ele><time>2026-04-04T09:08:29Z</time></trkpt><trkpt lat="42.366704712845625" lon="12.954119821344007"><ele>842.0</ele><time>2026-04-04T09:08:30Z</time></trkpt><trkpt lat="42.36672053588125" lon="12.954261223942698"><ele>842.0</ele><time>2026-04-04T09:08:31Z</time></trkpt><trkpt lat="42.36675118455238" lon="12.954381616832709"><ele>842.0</ele><time>2026-04-04T09:08:32Z</time></trkpt><trkpt lat="42.366774989037424" lon="12.95448762628564"><ele>842.0</ele><time>2026-04-04T09:08:33Z</time></trkpt><trkpt lat="42.366793839666926" lon="12.954600650542053"><ele>842.0</ele><time>2026-04-04T09:08:34Z</time></trkpt><trkpt lat="42.36682462909879" lon="12.95472966391085"><ele>842.0</ele><time>2026-04-04T09:08:35Z</time></trkpt><trkpt lat="42.36683882747562" lon="12.954853374094906"><ele>842.0</ele><time>2026-04-04T09:08:36Z</time></trkpt><trkpt lat="42.366838404018" lon="12.954977481294383"><ele>842.0</ele><time>2026-04-04T09:08:37Z</time></trkpt><trkpt lat="42.36686673648686" lon="12.955090878910706"><ele>842.0</ele><time>2026-04-04T09:08:38Z</time></trkpt><trkpt lat="42.36690761091615" lon="12.955205617584424"><ele>842.0</ele><time>2026-04-04T09:08:39Z</time></trkpt><trkpt lat="42.36694567456257" lon="12.955322343533076"><ele>842.0</ele><time>2026-04-04T09:08:40Z</time></trkpt><trkpt lat="42.36698159865805" lon="12.955441156019583"><ele>841.6</ele><time>2026-04-04T09:08:41Z</time></trkpt><trkpt lat="42.36701393655253" lon="12.955564050917287"><ele>841.2</ele><time>2026-04-04T09:08:42Z</time></trkpt><trkpt lat="42.36702965086369" lon="12.955692883636447"><ele>840.8</ele><time>2026-04-04T09:08:43Z</time></trkpt><trkpt lat="42.36705780218148" lon="12.955816972367586"><ele>840.4</ele><time>2026-04-04T09:08:44Z</time></trkpt><trkpt lat="42.36708722541723" lon="12.955942354143072"><ele>840.0</ele><time>2026-04-04T09:08:45Z</time></trkpt><trkpt lat="42.3671328292227" lon="12.95605976397728"><ele>839.8</ele><time>2026-04-04T09:08:46Z</time></trkpt><trkpt lat="42.36717272197995" lon="12.956172492526685"><ele>839.6</ele><time>2026-04-04T09:08:47Z</time></trkpt><trkpt lat="42.36722657435267" lon="12.95627308952078"><ele>839.4000000000001</ele><time>2026-04-04T09:08:48Z</time></trkpt><trkpt lat="42.3673016348796" lon="12.956362604712814"><ele>839.2</ele><time>2026-04-04T09:08:49Z</time></trkpt><trkpt lat="42.36736959212505" lon="12.956440271984086"><ele>839.0</ele><time>2026-04-04T09:08:50Z</time></trkpt><trkpt lat="42.3674328453313" lon="12.95650770514815"><ele>839.0</ele><time>2026-04-04T09:08:51Z</time></trkpt><trkpt lat="42.367503669047785" lon="12.956566077460742"><ele>839.0</ele><time>2026-04-04T09:08:52Z</time></trkpt><trkpt lat="42.36757778028505" lon="12.956613042170215"><ele>839.0</ele><time>2026-04-04T09:08:53Z</time></trkpt><trkpt lat="42.36763917806004" lon="12.956649127216316"><ele>839.0</ele><time>2026-04-04T09:08:54Z</time></trkpt><trkpt lat="42.367699235422435" lon="12.956763736809007"><ele>839.0</ele><time>2026-04-04T09:08:56Z</time></trkpt><trkpt lat="42.367580455859695" lon="12.956783218209686"><ele>838.5000000000001</ele><time>2026-04-04T09:08:58Z</time></trkpt><trkpt lat="42.36751451439763" lon="12.956778349391508"><ele>838.0</ele><time>2026-04-04T09:08:59Z</time></trkpt><trkpt lat="42.367415244944574" lon="12.956779620769877"><ele>837.5</ele><time>2026-04-04T09:09:00Z</time></trkpt><trkpt lat="42.3673155565957" lon="12.956779291721638"><ele>837.0</ele><time>2026-04-04T09:09:01Z</time></trkpt><trkpt lat="42.36723682783452" lon="12.95678021459876"><ele>836.5000000000001</ele><time>2026-04-04T09:09:02Z</time></trkpt><trkpt lat="42.36715779198" lon="12.956797517722126"><ele>836.0</ele><time>2026-04-04T09:09:02.999Z</time></trkpt><trkpt lat="42.36707893099771" lon="12.956855428717233"><ele>836.0</ele><time>2026-04-04T09:09:03.999Z</time></trkpt><trkpt lat="42.36703939215715" lon="12.956977841110826"><ele>836.0</ele><time>2026-04-04T09:09:04.999Z</time></trkpt><trkpt lat="42.36698119465424" lon="12.957106033272494"><ele>836.0</ele><time>2026-04-04T09:09:05.999Z</time></trkpt><trkpt lat="42.3669133188198" lon="12.95719609736655"><ele>836.0</ele><time>2026-04-04T09:09:06.999Z</time></trkpt><trkpt lat="42.36685170665878" lon="12.957284582131035"><ele>836.0</ele><time>2026-04-04T09:09:07.999Z</time></trkpt><trkpt lat="42.36678589470793" lon="12.957354145718243"><ele>836.0000000000001</ele><time>2026-04-04T09:09:08.999Z</time></trkpt><trkpt lat="42.36670634073774" lon="12.957427835081113"><ele>836.0</ele><time>2026-04-04T09:09:09.999Z</time></trkpt><trkpt lat="42.36662964228882" lon="12.957500219460947"><ele>836.0</ele><time>2026-04-04T09:09:10.999Z</time></trkpt><trkpt lat="42.36656316797219" lon="12.957565288295362"><ele>836.0</ele><time>2026-04-04T09:09:11.999Z</time></trkpt><trkpt lat="42.36650080713029" lon="12.95763342106311"><ele>836.0000000000001</ele><time>2026-04-04T09:09:12.999Z</time></trkpt><trkpt lat="42.366433873923725" lon="12.9577112393784"><ele>836.0</ele><time>2026-04-04T09:09:13.999Z</time></trkpt><trkpt lat="42.36637146929261" lon="12.9577846709763"><ele>836.1666666666667</ele><time>2026-04-04T09:09:14.999Z</time></trkpt><trkpt lat="42.36631158300283" lon="12.957853359047592"><ele>836.3333333333334</ele><time>2026-04-04T09:09:15.999Z</time></trkpt><trkpt lat="42.36624818014949" lon="12.957924114406778"><ele>836.5</ele><time>2026-04-04T09:09:16.999Z</time></trkpt><trkpt lat="42.36618163283361" lon="12.95799118376102"><ele>836.6666666666667</ele><time>2026-04-04T09:09:17.999Z</time></trkpt><trkpt lat="42.36610944644931" lon="12.95805417005726"><ele>836.8333333333334</ele><time>2026-04-04T09:09:18.999Z</time></trkpt><trkpt lat="42.36603662296395" lon="12.95810780554803"><ele>837.0</ele><time>2026-04-04T09:09:19.999Z</time></trkpt><trkpt lat="42.36596002781531" lon="12.958159984897382"><ele>837.0</ele><time>2026-04-04T09:09:20.999Z</time></trkpt><trkpt lat="42.36588111604711" lon="12.958213589502824"><ele>837.0</ele><time>2026-04-04T09:09:21.999Z</time></trkpt><trkpt lat="42.365806064693246" lon="12.958264571721683"><ele>837.0</ele><time>2026-04-04T09:09:22.999Z</time></trkpt><trkpt lat="42.365732235054864" lon="12.958324108096145"><ele>837.0</ele><time>2026-04-04T09:09:23.999Z</time></trkpt><trkpt lat="42.36567724285837" lon="12.958422167267313"><ele>837.0</ele><time>2026-04-04T09:09:24.999Z</time></trkpt><trkpt lat="42.36565003145909" lon="12.958547928283352"><ele>837.0</ele><time>2026-04-04T09:09:25.999Z</time></trkpt><trkpt lat="42.3656362295721" lon="12.958672219615893"><ele>837.0</ele><time>2026-04-04T09:09:26.999Z</time></trkpt><trkpt lat="42.36561426744109" lon="12.958797973951928"><ele>837.0</ele><time>2026-04-04T09:09:27.999Z</time></trkpt><trkpt lat="42.36559653795929" lon="12.958923329110224"><ele>837.0</ele><time>2026-04-04T09:09:28.999Z</time></trkpt><trkpt lat="42.36556870294643" lon="12.959047365994032"><ele>837.0</ele><time>2026-04-04T09:09:29.999Z</time></trkpt><trkpt lat="42.365574632234534" lon="12.959175398466343"><ele>837.0</ele><time>2026-04-04T09:09:30.999Z</time></trkpt><trkpt lat="42.365567257615844" lon="12.95930102191728"><ele>836.3333333333334</ele><time>2026-04-04T09:09:32Z</time></trkpt><trkpt lat="42.3655670492759" lon="12.959429157170756"><ele>835.6666666666667</ele><time>2026-04-04T09:09:33Z</time></trkpt><trkpt lat="42.36557028492078" lon="12.9595552700703"><ele>835.0</ele><time>2026-04-04T09:09:34Z</time></trkpt><trkpt lat="42.36557238998498" lon="12.959670607428063"><ele>834.3333333333334</ele><time>2026-04-04T09:09:35Z</time></trkpt><trkpt lat="42.365558949658876" lon="12.959758082260038"><ele>833.6666666666667</ele><time>2026-04-04T09:09:36Z</time></trkpt><trkpt lat="42.365526668180074" lon="12.959898964183296"><ele>833.0</ele><time>2026-04-04T09:09:38Z</time></trkpt><trkpt lat="42.36545751955292" lon="12.95989342616473"><ele>833.0000000000001</ele><time>2026-04-04T09:09:39Z</time></trkpt><trkpt lat="42.36538164316293" lon="12.959870620519219"><ele>833.0</ele><time>2026-04-04T09:09:40Z</time></trkpt><trkpt lat="42.36529252731612" lon="12.95986644428779"><ele>833.0</ele><time>2026-04-04T09:09:41Z</time></trkpt><trkpt lat="42.36520366510885" lon="12.95988206267682"><ele>833.0</ele><time>2026-04-04T09:09:42Z</time></trkpt><trkpt lat="42.36512922916728" lon="12.959928900371239"><ele>833.0000000000001</ele><time>2026-04-04T09:09:43Z</time></trkpt><trkpt lat="42.36505482887991" lon="12.960016621430334"><ele>833.0</ele><time>2026-04-04T09:09:44Z</time></trkpt><trkpt lat="42.36499421272976" lon="12.960108010610059"><ele>832.0</ele><time>2026-04-04T09:09:45Z</time></trkpt><trkpt lat="42.36493334177874" lon="12.960199228666767"><ele>831.0</ele><time>2026-04-04T09:09:46Z</time></trkpt><trkpt lat="42.36487467249258" lon="12.960287147410586"><ele>830.0</ele><time>2026-04-04T09:09:47Z</time></trkpt><trkpt lat="42.364816724695075" lon="12.96037911752065"><ele>829.0</ele><time>2026-04-04T09:09:48Z</time></trkpt><trkpt lat="42.364754987222554" lon="12.960477431638024"><ele>828.0</ele><time>2026-04-04T09:09:49Z</time></trkpt><trkpt lat="42.36469580684676" lon="12.96057554447278"><ele>827.0</ele><time>2026-04-04T09:09:50Z</time></trkpt><trkpt lat="42.36464277287751" lon="12.960670869376388"><ele>826.0</ele><time>2026-04-04T09:09:51Z</time></trkpt><trkpt lat="42.364593580800125" lon="12.96076851871009"><ele>825.0</ele><time>2026-04-04T09:09:52Z</time></trkpt><trkpt lat="42.36454291908628" lon="12.960879026003516"><ele>824.0</ele><time>2026-04-04T09:09:53Z</time></trkpt><trkpt lat="42.36451037325626" lon="12.961006885862066"><ele>823.0</ele><time>2026-04-04T09:09:54Z</time></trkpt><trkpt lat="42.36445125061845" lon="12.961115161657295"><ele>822.4999999999999</ele><time>2026-04-04T09:09:55Z</time></trkpt><trkpt lat="42.36441433265263" lon="12.961208055899078"><ele>822.0</ele><time>2026-04-04T09:09:56Z</time></trkpt><trkpt lat="42.364354420210475" lon="12.961283281912905"><ele>821.5</ele><time>2026-04-04T09:09:57Z</time></trkpt><trkpt lat="42.36428879891067" lon="12.961306856513579"><ele>821.0</ele><time>2026-04-04T09:09:58Z</time></trkpt><trkpt lat="42.36422947981096" lon="12.961270645071378"><ele>820.4999999999999</ele><time>2026-04-04T09:09:59Z</time></trkpt><trkpt lat="42.364145580151124" lon="12.961282112795278"><ele>820.0</ele><time>2026-04-04T09:10:00Z</time></trkpt><trkpt lat="42.364067707872024" lon="12.961305328801147"><ele>819.9999999999999</ele><time>2026-04-04T09:10:01Z</time></trkpt><trkpt lat="42.36398709173693" lon="12.961349956356061"><ele>820.0</ele><time>2026-04-04T09:10:02Z</time></trkpt><trkpt lat="42.36392143234546" lon="12.961428290087301"><ele>820.0</ele><time>2026-04-04T09:10:03Z</time></trkpt><trkpt lat="42.36389170681759" lon="12.961544915080841"><ele>820.0</ele><time>2026-04-04T09:10:04Z</time></trkpt><trkpt lat="42.36384322960697" lon="12.96163941045527"><ele>819.9999999999999</ele><time>2026-04-04T09:10:05Z</time></trkpt><trkpt lat="42.36380837459708" lon="12.961735502789278"><ele>820.0</ele><time>2026-04-04T09:10:06Z</time></trkpt><trkpt lat="42.36376634441923" lon="12.961827756931292"><ele>817.9999999999999</ele><time>2026-04-04T09:10:07Z</time></trkpt><trkpt lat="42.36371349097728" lon="12.961922416038412"><ele>816.0</ele><time>2026-04-04T09:10:08Z</time></trkpt><trkpt lat="42.36365619490228" lon="12.96202512051731"><ele>814.0</ele><time>2026-04-04T09:10:09Z</time></trkpt><trkpt lat="42.36360559064225" lon="12.962129319350183"><ele>812.0</ele><time>2026-04-04T09:10:10Z</time></trkpt><trkpt lat="42.36356073574972" lon="12.962226314155826"><ele>809.9999999999999</ele><time>2026-04-04T09:10:11Z</time></trkpt><trkpt lat="42.363514019818375" lon="12.962322492004482"><ele>808.0</ele><time>2026-04-04T09:10:12Z</time></trkpt><trkpt lat="42.36345630070389" lon="12.962401170084815"><ele>808.0</ele><time>2026-04-04T09:10:13Z</time></trkpt><trkpt lat="42.36339068550302" lon="12.962474005188714"><ele>808.0</ele><time>2026-04-04T09:10:14Z</time></trkpt><trkpt lat="42.36331727260837" lon="12.962541077829544"><ele>808.0</ele><time>2026-04-04T09:10:15Z</time></trkpt><trkpt lat="42.36324279122437" lon="12.962605592416534"><ele>808.0</ele><time>2026-04-04T09:10:16Z</time></trkpt><trkpt lat="42.36316744363735" lon="12.962676953487058"><ele>808.0</ele><time>2026-04-04T09:10:17Z</time></trkpt><trkpt lat="42.363094725379526" lon="12.962771565071687"><ele>807.9999999999999</ele><time>2026-04-04T09:10:18Z</time></trkpt><trkpt lat="42.36303699747802" lon="12.96286208871012"><ele>808.0</ele><time>2026-04-04T09:10:19Z</time></trkpt><trkpt lat="42.3629870288556" lon="12.962954101741927"><ele>808.0</ele><time>2026-04-04T09:10:20Z</time></trkpt><trkpt lat="42.36294336215287" lon="12.963040080974377"><ele>808.0</ele><time>2026-04-04T09:10:21Z</time></trkpt><trkpt lat="42.36290012470907" lon="12.963132366273692"><ele>807.9999999999999</ele><time>2026-04-04T09:10:22Z</time></trkpt><trkpt lat="42.362854214914364" lon="12.963232832970109"><ele>808.0</ele><time>2026-04-04T09:10:23Z</time></trkpt><trkpt lat="42.36280777479599" lon="12.963341278034221"><ele>806.0</ele><time>2026-04-04T09:10:24Z</time></trkpt><trkpt lat="42.36276815069089" lon="12.963446111502718"><ele>804.0</ele><time>2026-04-04T09:10:25Z</time></trkpt><trkpt lat="42.36271477316568" lon="12.963552455175034"><ele>802.0</ele><time>2026-04-04T09:10:26Z</time></trkpt><trkpt lat="42.36265510579159" lon="12.963642358347492"><ele>800.0</ele><time>2026-04-04T09:10:27Z</time></trkpt><trkpt lat="42.36258856623954" lon="12.963725655140697"><ele>798.0</ele><time>2026-04-04T09:10:28Z</time></trkpt><trkpt lat="42.36252489185454" lon="12.963817466350042"><ele>798.0</ele><time>2026-04-04T09:10:29Z</time></trkpt><trkpt lat="42.362460830660616" lon="12.963909390176674"><ele>798.0</ele><time>2026-04-04T09:10:30Z</time></trkpt><trkpt lat="42.36239640878691" lon="12.964003131174861"><ele>798.0</ele><time>2026-04-04T09:10:31Z</time></trkpt><trkpt lat="42.36233694083243" lon="12.964092668744303"><ele>798.0</ele><time>2026-04-04T09:10:32Z</time></trkpt><trkpt lat="42.36227698456562" lon="12.964187488379707"><ele>798.0</ele><time>2026-04-04T09:10:33Z</time></trkpt><trkpt lat="42.36222450502378" lon="12.964279151319104"><ele>795.2</ele><time>2026-04-04T09:10:34Z</time></trkpt><trkpt lat="42.362173337696234" lon="12.964373584042924"><ele>792.4</ele><time>2026-04-04T09:10:35Z</time></trkpt><trkpt lat="42.36212345070872" lon="12.964476524855515"><ele>789.6</ele><time>2026-04-04T09:10:36Z</time></trkpt><trkpt lat="42.36207474930911" lon="12.964581107713224"><ele>786.8000000000001</ele><time>2026-04-04T09:10:37Z</time></trkpt><trkpt lat="42.36202577171294" lon="12.964691246196773"><ele>784.0</ele><time>2026-04-04T09:10:38Z</time></trkpt><trkpt lat="42.36197876638568" lon="12.964803004054247"><ele>783.9999999999999</ele><time>2026-04-04T09:10:39Z</time></trkpt><trkpt lat="42.36193641712076" lon="12.96490935051222"><ele>784.0</ele><time>2026-04-04T09:10:40Z</time></trkpt><trkpt lat="42.36190215361253" lon="12.965009061367004"><ele>784.0</ele><time>2026-04-04T09:10:41Z</time></trkpt><trkpt lat="42.36185612921295" lon="12.965070374608256"><ele>784.0</ele><time>2026-04-04T09:10:42Z</time></trkpt><trkpt lat="42.361784393856865" lon="12.965117387268538"><ele>783.9999999999999</ele><time>2026-04-04T09:12:01Z</time></trkpt><trkpt lat="42.361666034312705" lon="12.965094497595748"><ele>784.0</ele><time>2026-04-04T09:12:03Z</time></trkpt><trkpt lat="42.36160008806099" lon="12.965092910418951"><ele>786.2</ele><time>2026-04-04T09:12:05Z</time></trkpt><trkpt lat="42.36149569720755" lon="12.965147793312909"><ele>788.4000000000001</ele><time>2026-04-04T09:12:07Z</time></trkpt><trkpt lat="42.36139172213731" lon="12.965231358276815"><ele>790.6</ele><time>2026-04-04T09:12:09Z</time></trkpt><trkpt lat="42.36132834313337" lon="12.96528703659892"><ele>792.8</ele><time>2026-04-04T09:12:10Z</time></trkpt><trkpt lat="42.36124993512737" lon="12.96535901594832"><ele>795.0</ele><time>2026-04-04T09:12:11Z</time></trkpt><trkpt lat="42.361158853042596" lon="12.965443789388054"><ele>797.0</ele><time>2026-04-04T09:12:12Z</time></trkpt><trkpt lat="42.36110185417784" lon="12.965500387455823"><ele>799.0</ele><time>2026-04-04T09:12:13Z</time></trkpt><trkpt lat="42.361041177510856" lon="12.96555974542619"><ele>801.0</ele><time>2026-04-04T09:12:14Z</time></trkpt><trkpt lat="42.36094412371263" lon="12.965639049382055"><ele>803.0</ele><time>2026-04-04T09:12:15Z</time></trkpt><trkpt lat="42.36084220747307" lon="12.965692577788243"><ele>805.0</ele><time>2026-04-04T09:12:16Z</time></trkpt><trkpt lat="42.36069070213969" lon="12.965717617258477"><ele>804.9999999999999</ele><time>2026-04-04T09:12:18Z</time></trkpt><trkpt lat="42.36059100071841" lon="12.965714162176116"><ele>805.0</ele><time>2026-04-04T09:12:19Z</time></trkpt><trkpt lat="42.360513029322576" lon="12.965717464863271"><ele>805.0</ele><time>2026-04-04T09:12:20Z</time></trkpt><trkpt lat="42.36043626597956" lon="12.96574778500431"><ele>805.0</ele><time>2026-04-04T09:12:21Z</time></trkpt><trkpt lat="42.360356056325614" lon="12.965793507037596"><ele>804.9999999999999</ele><time>2026-04-04T09:12:22Z</time></trkpt><trkpt lat="42.3602586040233" lon="12.965838769669164"><ele>805.0</ele><time>2026-04-04T09:12:23Z</time></trkpt><trkpt lat="42.36016753881896" lon="12.965893517241364"><ele>805.3333333333333</ele><time>2026-04-04T09:12:24Z</time></trkpt><trkpt lat="42.360091831522894" lon="12.96595493802379"><ele>805.6666666666666</ele><time>2026-04-04T09:12:25Z</time></trkpt><trkpt lat="42.36001470845402" lon="12.966028448911828"><ele>806.0</ele><time>2026-04-04T09:12:26Z</time></trkpt><trkpt lat="42.35994979928541" lon="12.966105757035805"><ele>806.3333333333333</ele><time>2026-04-04T09:12:27Z</time></trkpt><trkpt lat="42.359883089635346" lon="12.96616539361776"><ele>806.6666666666666</ele><time>2026-04-04T09:12:28Z</time></trkpt><trkpt lat="42.35980880792256" lon="12.966233159057907"><ele>807.0</ele><time>2026-04-04T09:12:29Z</time></trkpt><trkpt lat="42.35973937754908" lon="12.966304334715351"><ele>801.6666666666666</ele><time>2026-04-04T09:12:30Z</time></trkpt><trkpt lat="42.35967839685525" lon="12.966381113030383"><ele>796.3333333333333</ele><time>2026-04-04T09:12:31Z</time></trkpt><trkpt lat="42.359640854950435" lon="12.966462628639945"><ele>791.0</ele><time>2026-04-04T09:12:32Z</time></trkpt><trkpt lat="42.35962878585365" lon="12.966558361932536"><ele>785.6666666666666</ele><time>2026-04-04T09:12:33Z</time></trkpt><trkpt lat="42.359640965889504" lon="12.966660326594722"><ele>780.3333333333333</ele><time>2026-04-04T09:12:34Z</time></trkpt><trkpt lat="42.35966659766286" lon="12.96677832109334"><ele>775.0</ele><time>2026-04-04T09:12:35Z</time></trkpt><trkpt lat="42.359699519988105" lon="12.966897035428772"><ele>779.6666666666666</ele><time>2026-04-04T09:12:36Z</time></trkpt><trkpt lat="42.35972009125852" lon="12.967004847290061"><ele>784.3333333333333</ele><time>2026-04-04T09:12:37Z</time></trkpt><trkpt lat="42.35974315765131" lon="12.96709436266853"><ele>789.0</ele><time>2026-04-04T09:12:38Z</time></trkpt><trkpt lat="42.35977731005429" lon="12.96720529540312"><ele>793.6666666666667</ele><time>2026-04-04T09:12:40Z</time></trkpt><trkpt lat="42.3597896338491" lon="12.967316271933443"><ele>798.3333333333334</ele><time>2026-04-04T09:12:43Z</time></trkpt><trkpt lat="42.35983130451405" lon="12.96739381795863"><ele>803.0</ele><time>2026-04-04T09:12:46Z</time></trkpt><trkpt lat="42.35988683171534" lon="12.967496978143364"><ele>799.8</ele><time>2026-04-04T09:12:49Z</time></trkpt><trkpt lat="42.359932216939065" lon="12.96758234748486"><ele>796.5999999999999</ele><time>2026-04-04T09:12:50Z</time></trkpt><trkpt lat="42.35999741148034" lon="12.967672771349099"><ele>793.4000000000001</ele><time>2026-04-04T09:12:51Z</time></trkpt><trkpt lat="42.3600647815881" lon="12.96775016852595"><ele>790.2</ele><time>2026-04-04T09:12:52Z</time></trkpt><trkpt lat="42.360135500563324" lon="12.967844062558237"><ele>787.0</ele><time>2026-04-04T09:12:53Z</time></trkpt><trkpt lat="42.36022150795219" lon="12.967927982337319"><ele>787.0</ele><time>2026-04-04T09:12:54Z</time></trkpt><trkpt lat="42.36030707822375" lon="12.968010137577616"><ele>787.0</ele><time>2026-04-04T09:12:55Z</time></trkpt><trkpt lat="42.36040597619684" lon="12.968080827462613"><ele>787.0</ele><time>2026-04-04T09:12:56Z</time></trkpt><trkpt lat="42.3604842614153" lon="12.968175160765062"><ele>787.0</ele><time>2026-04-04T09:12:57Z</time></trkpt><trkpt lat="42.3605309124432" lon="12.968259239091777"><ele>787.0</ele><time>2026-04-04T09:12:58Z</time></trkpt><trkpt lat="42.36057218898852" lon="12.968368067141816"><ele>784.9999999999999</ele><time>2026-04-04T09:12:59Z</time></trkpt><trkpt lat="42.360612374457894" lon="12.96847775667162"><ele>783.0</ele><time>2026-04-04T09:13:00Z</time></trkpt><trkpt lat="42.36065243714477" lon="12.968587702025498"><ele>781.0</ele><time>2026-04-04T09:13:01Z</time></trkpt><trkpt lat="42.36068197251124" lon="12.968688677034613"><ele>779.0</ele><time>2026-04-04T09:13:02Z</time></trkpt><trkpt lat="42.36070704171031" lon="12.968776536993124"><ele>776.9999999999999</ele><time>2026-04-04T09:13:03Z</time></trkpt><trkpt lat="42.360792536198886" lon="12.968871613949368"><ele>775.0</ele><time>2026-04-04T09:13:05Z</time></trkpt><trkpt lat="42.360864114595095" lon="12.968787697420673"><ele>774.9999999999999</ele><time>2026-04-04T09:13:07Z</time></trkpt><trkpt lat="42.36090975689046" lon="12.968726688587486"><ele>775.0</ele><time>2026-04-04T09:13:08Z</time></trkpt><trkpt lat="42.360947539718616" lon="12.968803403988348"><ele>775.0</ele><time>2026-04-04T09:13:10.999Z</time></trkpt><trkpt lat="42.360936840572435" lon="12.968911009105067"><ele>775.0</ele><time>2026-04-04T09:13:11.999Z</time></trkpt><trkpt lat="42.36087836015834" lon="12.968980909473716"><ele>774.9999999999999</ele><time>2026-04-04T09:13:12.999Z</time></trkpt><trkpt lat="42.360828428536216" lon="12.969061049642702"><ele>775.0</ele><time>2026-04-04T09:13:14.999Z</time></trkpt><trkpt lat="42.360742168480975" lon="12.969061174602587"><ele>774.9999999999999</ele><time>2026-04-04T09:13:16.999Z</time></trkpt><trkpt lat="42.360620400805686" lon="12.969043130668492"><ele>775.0</ele><time>2026-04-04T09:13:18.999Z</time></trkpt><trkpt lat="42.36054793438029" lon="12.969030534187857"><ele>775.0</ele><time>2026-04-04T09:13:19.999Z</time></trkpt><trkpt lat="42.36048155240809" lon="12.969018995341127"><ele>775.0</ele><time>2026-04-04T09:13:20.999Z</time></trkpt><trkpt lat="42.360415868262876" lon="12.96900757779496"><ele>774.9999999999999</ele><time>2026-04-04T09:13:21.999Z</time></trkpt><trkpt lat="42.36035232394849" lon="12.968998921858514"><ele>775.0</ele><time>2026-04-04T09:13:22.999Z</time></trkpt><trkpt lat="42.360286326801734" lon="12.968996518688527"><ele>774.1666666666666</ele><time>2026-04-04T09:13:23.999Z</time></trkpt><trkpt lat="42.360156402102994" lon="12.969006690742521"><ele>773.3333333333333</ele><time>2026-04-04T09:13:25.999Z</time></trkpt><trkpt lat="42.36008617672045" lon="12.969030512823778"><ele>772.5</ele><time>2026-04-04T09:13:26.999Z</time></trkpt><trkpt lat="42.36001629987551" lon="12.96907255315279"><ele>771.6666666666667</ele><time>2026-04-04T09:13:27.999Z</time></trkpt><trkpt lat="42.3599533026439" lon="12.969121454770647"><ele>770.8333333333334</ele><time>2026-04-04T09:13:28.999Z</time></trkpt><trkpt lat="42.359888466695736" lon="12.96916952278435"><ele>770.0</ele><time>2026-04-04T09:13:29.999Z</time></trkpt><trkpt lat="42.35982129835775" lon="12.969219320052252"><ele>769.0</ele><time>2026-04-04T09:13:30.999Z</time></trkpt><trkpt lat="42.359753733249086" lon="12.969271869238009"><ele>768.0</ele><time>2026-04-04T09:13:31.999Z</time></trkpt><trkpt lat="42.35969115385384" lon="12.96932622553393"><ele>767.0</ele><time>2026-04-04T09:13:32.999Z</time></trkpt><trkpt lat="42.35962170805432" lon="12.969394841486213"><ele>766.0</ele><time>2026-04-04T09:13:33.999Z</time></trkpt><trkpt lat="42.35952953866953" lon="12.969497665658611"><ele>765.0</ele><time>2026-04-04T09:13:34.999Z</time></trkpt><trkpt lat="42.35944234355649" lon="12.969596635853492"><ele>765.0</ele><time>2026-04-04T09:13:35.999Z</time></trkpt><trkpt lat="42.359360190657696" lon="12.969684628806277"><ele>765.0</ele><time>2026-04-04T09:13:36.999Z</time></trkpt><trkpt lat="42.35928288471102" lon="12.969766146111553"><ele>765.0</ele><time>2026-04-04T09:13:37.999Z</time></trkpt><trkpt lat="42.3592109056401" lon="12.969842046313305"><ele>765.0</ele><time>2026-04-04T09:13:38.999Z</time></trkpt><trkpt lat="42.359142967574535" lon="12.96991715863137"><ele>765.0</ele><time>2026-04-04T09:13:39.999Z</time></trkpt><trkpt lat="42.35907616011102" lon="12.96999078740793"><ele>765.5</ele><time>2026-04-04T09:13:40.999Z</time></trkpt><trkpt lat="42.3590133362335" lon="12.970065137786802"><ele>766.0</ele><time>2026-04-04T09:13:41.999Z</time></trkpt><trkpt lat="42.35895240620109" lon="12.9701442152218"><ele>766.5</ele><time>2026-04-04T09:13:42.999Z</time></trkpt><trkpt lat="42.35889835538063" lon="12.970226281935016"><ele>767.0</ele><time>2026-04-04T09:13:44Z</time></trkpt><trkpt lat="42.35885212069444" lon="12.970307400642772"><ele>767.5</ele><time>2026-04-04T09:13:45Z</time></trkpt><trkpt lat="42.358814376196044" lon="12.970390957758786"><ele>768.0</ele><time>2026-04-04T09:13:46Z</time></trkpt><trkpt lat="42.35878363419177" lon="12.97047168817949"><ele>766.0</ele><time>2026-04-04T09:13:47Z</time></trkpt><trkpt lat="42.35872462304142" lon="12.970605408807714"><ele>764.0</ele><time>2026-04-04T09:13:49Z</time></trkpt><trkpt lat="42.35866611019737" lon="12.970703726925809"><ele>762.0</ele><time>2026-04-04T09:13:51Z</time></trkpt><trkpt lat="42.35862807197071" lon="12.97079043355372"><ele>760.0</ele><time>2026-04-04T09:13:53Z</time></trkpt><trkpt lat="42.358604501407" lon="12.970888416801397"><ele>758.0</ele><time>2026-04-04T09:13:56Z</time></trkpt><trkpt lat="42.35857433015976" lon="12.970984430177664"><ele>756.0</ele><time>2026-04-04T09:14:00Z</time></trkpt><trkpt lat="42.35853722777879" lon="12.97106586064078"><ele>756.0</ele><time>2026-04-04T09:14:05Z</time></trkpt><trkpt lat="42.35848891830041" lon="12.971169045349626"><ele>756.0</ele><time>2026-04-04T09:14:08Z</time></trkpt><trkpt lat="42.35844969299503" lon="12.971241604825245"><ele>756.0</ele><time>2026-04-04T09:14:09Z</time></trkpt><trkpt lat="42.35836698545411" lon="12.97136194036569"><ele>756.0</ele><time>2026-04-04T09:14:11Z</time></trkpt><trkpt lat="42.35826364272627" lon="12.971482202099683"><ele>756.0</ele><time>2026-04-04T09:14:13Z</time></trkpt><trkpt lat="42.35819839680966" lon="12.971554340403562"><ele>756.0</ele><time>2026-04-04T09:14:14Z</time></trkpt><trkpt lat="42.35813721152281" lon="12.971621989148597"><ele>756.0</ele><time>2026-04-04T09:14:15Z</time></trkpt><trkpt lat="42.35807224015226" lon="12.971695495119057"><ele>756.0</ele><time>2026-04-04T09:14:16Z</time></trkpt><trkpt lat="42.3580095569945" lon="12.97176871116914"><ele>756.0</ele><time>2026-04-04T09:14:17Z</time></trkpt><trkpt lat="42.35795656958743" lon="12.971831915874944"><ele>756.0</ele><time>2026-04-04T09:14:18Z</time></trkpt><trkpt lat="42.35790318252195" lon="12.971895597311354"><ele>756.0</ele><time>2026-04-04T09:14:19Z</time></trkpt><trkpt lat="42.35785398960339" lon="12.9719609853833"><ele>755.0</ele><time>2026-04-04T09:14:20Z</time></trkpt><trkpt lat="42.357821173540174" lon="12.972064595011107"><ele>754.0</ele><time>2026-04-04T09:14:21Z</time></trkpt><trkpt lat="42.35780355417048" lon="12.97216592584003"><ele>753.0</ele><time>2026-04-04T09:14:22Z</time></trkpt><trkpt lat="42.35777813518924" lon="12.972265348899747"><ele>752.0</ele><time>2026-04-04T09:14:23Z</time></trkpt><trkpt lat="42.357726646049244" lon="12.97240588422564"><ele>751.0</ele><time>2026-04-04T09:14:25Z</time></trkpt><trkpt lat="42.35766719438423" lon="12.972446821778032"><ele>750.0</ele><time>2026-04-04T09:14:26Z</time></trkpt><trkpt lat="42.35760318203557" lon="12.97252040033864"><ele>749.6</ele><time>2026-04-04T09:14:27Z</time></trkpt><trkpt lat="42.3575327846433" lon="12.972600694981033"><ele>749.2</ele><time>2026-04-04T09:14:28Z</time></trkpt><trkpt lat="42.357459576279744" lon="12.972688722919793"><ele>748.8</ele><time>2026-04-04T09:14:29Z</time></trkpt><trkpt lat="42.357389319827604" lon="12.972774030849346"><ele>748.4</ele><time>2026-04-04T09:14:30Z</time></trkpt><trkpt lat="42.35731836868263" lon="12.972864537511704"><ele>748.0</ele><time>2026-04-04T09:14:31Z</time></trkpt><trkpt lat="42.357251909787436" lon="12.972950259171082"><ele>747.5</ele><time>2026-04-04T09:14:32Z</time></trkpt><trkpt lat="42.35718560944619" lon="12.973038419215605"><ele>747.0</ele><time>2026-04-04T09:14:33Z</time></trkpt><trkpt lat="42.357128662356644" lon="12.973115513294118"><ele>746.5</ele><time>2026-04-04T09:14:34Z</time></trkpt><trkpt lat="42.35706852251681" lon="12.973196929687383"><ele>746.0</ele><time>2026-04-04T09:14:35Z</time></trkpt><trkpt lat="42.35700833892014" lon="12.97328152592036"><ele>745.5</ele><time>2026-04-04T09:14:36Z</time></trkpt><trkpt lat="42.35695162116236" lon="12.973362340187254"><ele>745.0</ele><time>2026-04-04T09:14:37Z</time></trkpt><trkpt lat="42.3568947568477" lon="12.973443363165304"><ele>746.5</ele><time>2026-04-04T09:14:38Z</time></trkpt><trkpt lat="42.356836362759914" lon="12.973526565393362"><ele>748.0</ele><time>2026-04-04T09:14:39Z</time></trkpt><trkpt lat="42.35678110316302" lon="12.973607120603775"><ele>749.5</ele><time>2026-04-04T09:14:40Z</time></trkpt><trkpt lat="42.35672408858523" lon="12.973679794255446"><ele>751.0</ele><time>2026-04-04T09:14:41Z</time></trkpt><trkpt lat="42.35666584449452" lon="12.973752904393475"><ele>752.5</ele><time>2026-04-04T09:14:42Z</time></trkpt><trkpt lat="42.356602945753274" lon="12.973825670471685"><ele>754.0</ele><time>2026-04-04T09:14:43Z</time></trkpt><trkpt lat="42.35654132389404" lon="12.973891941386103"><ele>754.0</ele><time>2026-04-04T09:14:44Z</time></trkpt><trkpt lat="42.35647380455495" lon="12.973960784125108"><ele>754.0</ele><time>2026-04-04T09:14:45Z</time></trkpt><trkpt lat="42.356404478781975" lon="12.974029091404963"><ele>754.0</ele><time>2026-04-04T09:14:46Z</time></trkpt><trkpt lat="42.35633395016137" lon="12.97409443648464"><ele>754.0</ele><time>2026-04-04T09:14:47Z</time></trkpt><trkpt lat="42.35626203159432" lon="12.974150410883624"><ele>754.0</ele><time>2026-04-04T09:14:48Z</time></trkpt><trkpt lat="42.356188373014646" lon="12.974193328010653"><ele>754.0</ele><time>2026-04-04T09:14:49Z</time></trkpt><trkpt lat="42.35610549315482" lon="12.974224669940055"><ele>753.8000000000001</ele><time>2026-04-04T09:14:50Z</time></trkpt><trkpt lat="42.356028996872475" lon="12.974252777416796"><ele>753.6</ele><time>2026-04-04T09:14:51Z</time></trkpt><trkpt lat="42.355936305835854" lon="12.97427136522729"><ele>753.4</ele><time>2026-04-04T09:14:52Z</time></trkpt><trkpt lat="42.35584315258575" lon="12.974295980217114"><ele>753.2</ele><time>2026-04-04T09:14:53Z</time></trkpt><trkpt lat="42.35575000291813" lon="12.974318071122864"><ele>753.0</ele><time>2026-04-04T09:14:54Z</time></trkpt><trkpt lat="42.35565600469442" lon="12.974337661307574"><ele>753.0</ele><time>2026-04-04T09:14:55Z</time></trkpt><trkpt lat="42.355563948570705" lon="12.974353268320254"><ele>753.0</ele><time>2026-04-04T09:14:56Z</time></trkpt><trkpt lat="42.35546884392814" lon="12.974365079862608"><ele>753.0</ele><time>2026-04-04T09:14:57Z</time></trkpt><trkpt lat="42.35538031216632" lon="12.974361127277707"><ele>753.0</ele><time>2026-04-04T09:14:58Z</time></trkpt><trkpt lat="42.355292563686184" lon="12.974343386691762"><ele>753.0</ele><time>2026-04-04T09:14:59Z</time></trkpt><trkpt lat="42.35521266615243" lon="12.974315393880945"><ele>753.0</ele><time>2026-04-04T09:15:00Z</time></trkpt><trkpt lat="42.355141366972866" lon="12.974291056744603"><ele>750.4</ele><time>2026-04-04T09:15:01Z</time></trkpt><trkpt lat="42.355074203226884" lon="12.974275802922923"><ele>747.8</ele><time>2026-04-04T09:15:02Z</time></trkpt><trkpt lat="42.35499926378528" lon="12.974254012581538"><ele>745.2</ele><time>2026-04-04T09:15:11Z</time></trkpt><trkpt lat="42.354987248518825" lon="12.97398415450725"><ele>742.6</ele><time>2026-04-04T09:15:14.999Z</time></trkpt><trkpt lat="42.35497509863968" lon="12.973843702290804"><ele>740.0</ele><time>2026-04-04T09:15:16.999Z</time></trkpt><trkpt lat="42.35491626529003" lon="12.973782285978627"><ele>740.0</ele><time>2026-04-04T09:15:18.999Z</time></trkpt><trkpt lat="42.3548418347814" lon="12.97376030033951"><ele>740.0</ele><time>2026-04-04T09:15:19.999Z</time></trkpt><trkpt lat="42.35478478413701" lon="12.973711738791444"><ele>740.0</ele><time>2026-04-04T09:15:20.999Z</time></trkpt><trkpt lat="42.354716686845926" lon="12.973599146046778"><ele>740.0</ele><time>2026-04-04T09:15:22.999Z</time></trkpt><trkpt lat="42.354709977670424" lon="12.973445988314701"><ele>740.0</ele><time>2026-04-04T09:15:24.999Z</time></trkpt><trkpt lat="42.354692081974456" lon="12.973353970338886"><ele>740.0</ele><time>2026-04-04T09:15:26.999Z</time></trkpt><trkpt lat="42.35467458444957" lon="12.97325838159293"><ele>736.1666666666666</ele><time>2026-04-04T09:15:28.999Z</time></trkpt><trkpt lat="42.354628781634936" lon="12.973163243045075"><ele>732.3333333333333</ele><time>2026-04-04T09:15:30.999Z</time></trkpt><trkpt lat="42.35455435881404" lon="12.973101400894938"><ele>728.5</ele><time>2026-04-04T09:15:32.999Z</time></trkpt><trkpt lat="42.3544637186576" lon="12.973018213861094"><ele>724.6666666666666</ele><time>2026-04-04T09:15:34.999Z</time></trkpt><trkpt lat="42.35438197586572" lon="12.972994254332477"><ele>720.8333333333334</ele><time>2026-04-04T09:15:36.999Z</time></trkpt><trkpt lat="42.35432095669489" lon="12.972968680886977"><ele>717.0</ele><time>2026-04-04T09:15:37.999Z</time></trkpt><trkpt lat="42.35423161935558" lon="12.972932893483899"><ele>717.0</ele><time>2026-04-04T09:15:39.999Z</time></trkpt><trkpt lat="42.35423688289216" lon="12.97282413526076"><ele>717.0</ele><time>2026-04-04T09:15:43.999Z</time></trkpt><trkpt lat="42.354344179860014" lon="12.97273679090081"><ele>717.0</ele><time>2026-04-04T09:15:45.999Z</time></trkpt><trkpt lat="42.354396822107375" lon="12.972660318288353"><ele>717.0</ele><time>2026-04-04T09:15:46.999Z</time></trkpt><trkpt lat="42.35443867364268" lon="12.972588096807213"><ele>717.0</ele><time>2026-04-04T09:15:47.999Z</time></trkpt><trkpt lat="42.35447890671106" lon="12.972445126918672"><ele>711.6</ele><time>2026-04-04T09:15:50Z</time></trkpt><trkpt lat="42.35448276334689" lon="12.972308089465347"><ele>706.2</ele><time>2026-04-04T09:15:52Z</time></trkpt><trkpt lat="42.35443257106676" lon="12.972192171942163"><ele>700.8</ele><time>2026-04-04T09:15:54Z</time></trkpt><trkpt lat="42.354326010272835" lon="12.972130740994482"><ele>695.4</ele><time>2026-04-04T09:15:56Z</time></trkpt><trkpt lat="42.354246667782554" lon="12.972112469797969"><ele>690.0</ele><time>2026-04-04T09:15:57Z</time></trkpt><trkpt lat="42.35417089281" lon="12.972094270226766"><ele>690.0</ele><time>2026-04-04T09:15:58Z</time></trkpt><trkpt lat="42.35409204627847" lon="12.97209251073242"><ele>690.0</ele><time>2026-04-04T09:15:59Z</time></trkpt><trkpt lat="42.354024833476146" lon="12.972083761230305"><ele>690.0</ele><time>2026-04-04T09:16:00Z</time></trkpt><trkpt lat="42.35391336714179" lon="12.971978474129624"><ele>690.0</ele><time>2026-04-04T09:16:02Z</time></trkpt><trkpt lat="42.353847796313794" lon="12.97190687930445"><ele>690.0</ele><time>2026-04-04T09:16:03Z</time></trkpt><trkpt lat="42.353762331837515" lon="12.971823778569801"><ele>688.6</ele><time>2026-04-04T09:16:04Z</time></trkpt><trkpt lat="42.35367567881421" lon="12.97173862567182"><ele>687.2</ele><time>2026-04-04T09:16:05Z</time></trkpt><trkpt lat="42.35359134362641" lon="12.971652644237007"><ele>685.8</ele><time>2026-04-04T09:16:06Z</time></trkpt><trkpt lat="42.35352342626277" lon="12.971557488149196"><ele>684.4</ele><time>2026-04-04T09:16:07Z</time></trkpt><trkpt lat="42.353470382368826" lon="12.971473125563834"><ele>683.0</ele><time>2026-04-04T09:16:08Z</time></trkpt><trkpt lat="42.35341733714476" lon="12.971409641710467"><ele>678.5714285714286</ele><time>2026-04-04T09:16:09Z</time></trkpt><trkpt lat="42.35336231344894" lon="12.97136781893042"><ele>674.1428571428571</ele><time>2026-04-04T09:16:10Z</time></trkpt><trkpt lat="42.353303368488604" lon="12.97133755356594"><ele>669.7142857142858</ele><time>2026-04-04T09:16:11Z</time></trkpt><trkpt lat="42.353237050705516" lon="12.971345720591934"><ele>665.2857142857142</ele><time>2026-04-04T09:16:12Z</time></trkpt><trkpt lat="42.35317039779771" lon="12.971371015867959"><ele>660.8571428571428</ele><time>2026-04-04T09:16:13Z</time></trkpt><trkpt lat="42.353099201877974" lon="12.971444614773754"><ele>656.4285714285714</ele><time>2026-04-04T09:16:14Z</time></trkpt><trkpt lat="42.35302717990983" lon="12.971502764037309"><ele>652.0</ele><time>2026-04-04T09:16:15Z</time></trkpt><trkpt lat="42.352949314139764" lon="12.971546416630348"><ele>652.5</ele><time>2026-04-04T09:16:16Z</time></trkpt><trkpt lat="42.3528724831618" lon="12.97160993365305"><ele>653.0</ele><time>2026-04-04T09:16:17Z</time></trkpt><trkpt lat="42.35280645313067" lon="12.971666452593789"><ele>653.5</ele><time>2026-04-04T09:16:18Z</time></trkpt><trkpt lat="42.35274407488775" lon="12.971710002910296"><ele>654.0</ele><time>2026-04-04T09:16:19Z</time></trkpt><trkpt lat="42.35267705601847" lon="12.971746442292304"><ele>654.5</ele><time>2026-04-04T09:16:20Z</time></trkpt><trkpt lat="42.35261656090882" lon="12.971781524170007"><ele>655.0</ele><time>2026-04-04T09:16:21Z</time></trkpt><trkpt lat="42.35251662299164" lon="12.971847546637576"><ele>655.0</ele><time>2026-04-04T09:16:23Z</time></trkpt><trkpt lat="42.35241752894399" lon="12.971870241402602"><ele>655.0</ele><time>2026-04-04T09:16:25Z</time></trkpt><trkpt lat="42.35231129642983" lon="12.971805550795999"><ele>655.0</ele><time>2026-04-04T09:16:27Z</time></trkpt><trkpt lat="42.352259419011396" lon="12.971742368031036"><ele>655.0</ele><time>2026-04-04T09:16:28Z</time></trkpt><trkpt lat="42.35221595218779" lon="12.971678320712135"><ele>655.0</ele><time>2026-04-04T09:16:29Z</time></trkpt><trkpt lat="42.35217805471061" lon="12.97160537057427"><ele>655.0</ele><time>2026-04-04T09:16:30Z</time></trkpt><trkpt lat="42.352151222602565" lon="12.971524101527676"><ele>650.2</ele><time>2026-04-04T09:16:31Z</time></trkpt><trkpt lat="42.35206668237164" lon="12.971389272747757"><ele>645.4</ele><time>2026-04-04T09:16:33Z</time></trkpt><trkpt lat="42.35196902791361" lon="12.971320899358256"><ele>640.6</ele><time>2026-04-04T09:16:34Z</time></trkpt><trkpt lat="42.35188252081426" lon="12.97125235051684"><ele>635.8</ele><time>2026-04-04T09:16:35Z</time></trkpt><trkpt lat="42.35181737670999" lon="12.971176484114872"><ele>631.0</ele><time>2026-04-04T09:16:36Z</time></trkpt><trkpt lat="42.351758939382286" lon="12.97110045340841"><ele>631.0</ele><time>2026-04-04T09:16:37Z</time></trkpt><trkpt lat="42.35169687258406" lon="12.971031755531497"><ele>631.0</ele><time>2026-04-04T09:16:38Z</time></trkpt><trkpt lat="42.35162582239483" lon="12.970968803092907"><ele>631.0</ele><time>2026-04-04T09:16:39Z</time></trkpt><trkpt lat="42.35154019191961" lon="12.97089711131619"><ele>631.0</ele><time>2026-04-04T09:16:40Z</time></trkpt><trkpt lat="42.35146897266868" lon="12.970821405121773"><ele>631.0</ele><time>2026-04-04T09:16:41Z</time></trkpt><trkpt lat="42.35141288168363" lon="12.970741462624655"><ele>631.0</ele><time>2026-04-04T09:16:42Z</time></trkpt><trkpt lat="42.35139246526704" lon="12.970650053287772"><ele>628.2</ele><time>2026-04-04T09:16:43Z</time></trkpt><trkpt lat="42.35136796789262" lon="12.97053119810237"><ele>625.4000000000001</ele><time>2026-04-04T09:16:44Z</time></trkpt><trkpt lat="42.35132506363225" lon="12.97041872905324"><ele>622.6</ele><time>2026-04-04T09:16:45Z</time></trkpt><trkpt lat="42.35127549975853" lon="12.970309316550244"><ele>619.8000000000001</ele><time>2026-04-04T09:16:46Z</time></trkpt><trkpt lat="42.3512242614676" lon="12.970187147289284"><ele>617.0</ele><time>2026-04-04T09:16:47Z</time></trkpt><trkpt lat="42.35116409944715" lon="12.970110909977313"><ele>617.0</ele><time>2026-04-04T09:16:48Z</time></trkpt><trkpt lat="42.35109947094729" lon="12.970039030033043"><ele>617.0</ele><time>2026-04-04T09:16:49Z</time></trkpt><trkpt lat="42.351038109982085" lon="12.969971439608097"><ele>617.0</ele><time>2026-04-04T09:16:50Z</time></trkpt><trkpt lat="42.35099310702667" lon="12.969894785133338"><ele>617.0</ele><time>2026-04-04T09:16:51Z</time></trkpt><trkpt lat="42.35094557312749" lon="12.969813559695682"><ele>617.0</ele><time>2026-04-04T09:16:52Z</time></trkpt><trkpt lat="42.350890029702285" lon="12.969744071673807"><ele>617.0</ele><time>2026-04-04T09:16:53Z</time></trkpt><trkpt lat="42.350842302676455" lon="12.969683961514397"><ele>611.8333333333333</ele><time>2026-04-04T09:16:54Z</time></trkpt><trkpt lat="42.35080841390426" lon="12.96960113509394"><ele>606.6666666666666</ele><time>2026-04-04T09:16:55Z</time></trkpt><trkpt lat="42.35077493462577" lon="12.969493199086669"><ele>601.5</ele><time>2026-04-04T09:16:56Z</time></trkpt><trkpt lat="42.350737378756726" lon="12.969399012617389"><ele>596.3333333333334</ele><time>2026-04-04T09:16:57Z</time></trkpt><trkpt lat="42.35068965645208" lon="12.969318416247765"><ele>591.1666666666667</ele><time>2026-04-04T09:16:58Z</time></trkpt><trkpt lat="42.35063691467713" lon="12.969215751510148"><ele>586.0</ele><time>2026-04-04T09:16:59Z</time></trkpt><trkpt lat="42.35058702701992" lon="12.969114535197708"><ele>579.4</ele><time>2026-04-04T09:17:00Z</time></trkpt><trkpt lat="42.350548775974175" lon="12.96903399375075"><ele>572.8</ele><time>2026-04-04T09:17:01Z</time></trkpt><trkpt lat="42.35046790770819" lon="12.96896191260253"><ele>566.1999999999999</ele><time>2026-04-04T09:17:03Z</time></trkpt><trkpt lat="42.3504106000719" lon="12.969019454389906"><ele>559.6</ele><time>2026-04-04T09:17:06Z</time></trkpt><trkpt lat="42.35027751757092" lon="12.969074941021269"><ele>553.0</ele><time>2026-04-04T09:17:08Z</time></trkpt><trkpt lat="42.3501805684474" lon="12.969158429847056"><ele>555.6</ele><time>2026-04-04T09:17:09Z</time></trkpt><trkpt lat="42.35010597543774" lon="12.969216434789162"><ele>558.1999999999999</ele><time>2026-04-04T09:17:10Z</time></trkpt><trkpt lat="42.350015142747104" lon="12.96929167988357"><ele>560.8</ele><time>2026-04-04T09:17:11Z</time></trkpt><trkpt lat="42.349933304480594" lon="12.969357005527678"><ele>563.4</ele><time>2026-04-04T09:17:12Z</time></trkpt><trkpt lat="42.34984618889859" lon="12.969409805141222"><ele>566.0</ele><time>2026-04-04T09:17:13Z</time></trkpt><trkpt lat="42.34976883925261" lon="12.969457778617187"><ele>558.6</ele><time>2026-04-04T09:17:14Z</time></trkpt><trkpt lat="42.34970838629617" lon="12.969502072906646"><ele>551.2</ele><time>2026-04-04T09:17:15Z</time></trkpt><trkpt lat="42.3496218078158" lon="12.969592440911725"><ele>543.8</ele><time>2026-04-04T09:17:16.999Z</time></trkpt><trkpt lat="42.3496397208544" lon="12.969500495319364"><ele>536.4</ele><time>2026-04-04T09:17:21.999Z</time></trkpt><trkpt lat="42.349659798711535" lon="12.969318169364477"><ele>529.0</ele><time>2026-04-04T09:17:23.999Z</time></trkpt><trkpt lat="42.34968098984678" lon="12.969198072232004"><ele>530.8333333333334</ele><time>2026-04-04T09:17:24.999Z</time></trkpt><trkpt lat="42.3497015670437" lon="12.969090183658556"><ele>532.6666666666667</ele><time>2026-04-04T09:17:25.999Z</time></trkpt><trkpt lat="42.34972420903507" lon="12.968997848698464"><ele>534.5</ele><time>2026-04-04T09:17:26.999Z</time></trkpt><trkpt lat="42.34974979662904" lon="12.96890915194219"><ele>536.3333333333334</ele><time>2026-04-04T09:17:27.999Z</time></trkpt><trkpt lat="42.34982126200948" lon="12.968815497356198"><ele>538.1666666666666</ele><time>2026-04-04T09:17:29.999Z</time></trkpt><trkpt lat="42.34972867116411" lon="12.968859600219572"><ele>540.0</ele><time>2026-04-04T09:17:33.999Z</time></trkpt><trkpt lat="42.349639418230964" lon="12.968974753439594"><ele>538.1666666666666</ele><time>2026-04-04T09:17:35.999Z</time></trkpt><trkpt lat="42.34957542122328" lon="12.96902667340199"><ele>536.3333333333334</ele><time>2026-04-04T09:17:36.999Z</time></trkpt><trkpt lat="42.349502998922" lon="12.969089300216437"><ele>534.5</ele><time>2026-04-04T09:17:37.999Z</time></trkpt><trkpt lat="42.349440742757324" lon="12.96915262316006"><ele>532.6666666666667</ele><time>2026-04-04T09:17:38.999Z</time></trkpt><trkpt lat="42.349380869636185" lon="12.96920262352923"><ele>530.8333333333334</ele><time>2026-04-04T09:17:39.999Z</time></trkpt><trkpt lat="42.34932331296408" lon="12.96924138969181"><ele>529.0</ele><time>2026-04-04T09:17:40.999Z</time></trkpt><trkpt lat="42.34925082348738" lon="12.969308223830083"><ele>523.4</ele><time>2026-04-04T09:17:42.999Z</time></trkpt><trkpt lat="42.349222899431524" lon="12.96918891928165"><ele>517.8</ele><time>2026-04-04T09:17:47.999Z</time></trkpt><trkpt lat="42.34924705004547" lon="12.969011265930238"><ele>512.2</ele><time>2026-04-04T09:17:49.999Z</time></trkpt><trkpt lat="42.34925175320484" lon="12.968861987666601"><ele>506.6</ele><time>2026-04-04T09:17:51.999Z</time></trkpt><trkpt lat="42.34923997217672" lon="12.968716557556426"><ele>501.0</ele><time>2026-04-04T09:17:53.999Z</time></trkpt><trkpt lat="42.349223593693594" lon="12.968572878159875"><ele>501.0</ele><time>2026-04-04T09:17:56Z</time></trkpt><trkpt lat="42.34922028489521" lon="12.968448015400375"><ele>501.0</ele><time>2026-04-04T09:17:58Z</time></trkpt><trkpt lat="42.34923496127412" lon="12.9683106301345"><ele>501.0</ele><time>2026-04-04T09:18:00Z</time></trkpt><trkpt lat="42.3492432661924" lon="12.968155111395607"><ele>501.0</ele><time>2026-04-04T09:18:02Z</time></trkpt><trkpt lat="42.349264646660316" lon="12.96801592304206"><ele>501.0</ele><time>2026-04-04T09:18:04Z</time></trkpt><trkpt lat="42.34926338955775" lon="12.9678959451732"><ele>496.4</ele><time>2026-04-04T09:18:06Z</time></trkpt><trkpt lat="42.3492548182527" lon="12.967797006679627"><ele>491.8</ele><time>2026-04-04T09:18:09Z</time></trkpt><trkpt lat="42.34925968428165" lon="12.967594209248494"><ele>487.19999999999993</ele><time>2026-04-04T09:18:10Z</time></trkpt><trkpt lat="42.34927903741234" lon="12.967446980532747"><ele>482.59999999999997</ele><time>2026-04-04T09:18:12Z</time></trkpt><trkpt lat="42.34931732833725" lon="12.967308665621914"><ele>478.0</ele><time>2026-04-04T09:18:14Z</time></trkpt><trkpt lat="42.34934105243125" lon="12.967179618188892"><ele>473.79999999999995</ele><time>2026-04-04T09:18:16Z</time></trkpt><trkpt lat="42.349388641466454" lon="12.967024541605008"><ele>469.59999999999997</ele><time>2026-04-04T09:18:18Z</time></trkpt><trkpt lat="42.349443658113" lon="12.966909745737945"><ele>465.40000000000003</ele><time>2026-04-04T09:18:20Z</time></trkpt><trkpt lat="42.349543010311805" lon="12.966791873357993"><ele>461.20000000000005</ele><time>2026-04-04T09:18:22Z</time></trkpt><trkpt lat="42.34959069286995" lon="12.966716226753839"><ele>457.0</ele><time>2026-04-04T09:18:23Z</time></trkpt><trkpt lat="42.34963143025554" lon="12.966644598061773"><ele>454.8</ele><time>2026-04-04T09:18:24Z</time></trkpt><trkpt lat="42.349739614311055" lon="12.966549714548512"><ele>452.6</ele><time>2026-04-04T09:18:26Z</time></trkpt><trkpt lat="42.349820797260016" lon="12.966472637826838"><ele>450.40000000000003</ele><time>2026-04-04T09:18:27Z</time></trkpt><trkpt lat="42.34988135799615" lon="12.966396562446995"><ele>448.20000000000005</ele><time>2026-04-04T09:18:28Z</time></trkpt><trkpt lat="42.34993707916515" lon="12.966346234866638"><ele>446.0</ele><time>2026-04-04T09:18:29Z</time></trkpt><trkpt lat="42.350047692155016" lon="12.966329722119355"><ele>446.0</ele><time>2026-04-04T09:18:31Z</time></trkpt><trkpt lat="42.35017721207661" lon="12.966329462063182"><ele>446.0</ele><time>2026-04-04T09:18:33Z</time></trkpt><trkpt lat="42.35024819339375" lon="12.966301010018904"><ele>446.0</ele><time>2026-04-04T09:18:34Z</time></trkpt><trkpt lat="42.350308441227696" lon="12.96627235487693"><ele>446.0</ele><time>2026-04-04T09:18:35Z</time></trkpt><trkpt lat="42.3504205866013" lon="12.966253259040652"><ele>446.0</ele><time>2026-04-04T09:18:37Z</time></trkpt><trkpt lat="42.35051607434827" lon="12.96619140184072"><ele>447.0</ele><time>2026-04-04T09:18:41Z</time></trkpt><trkpt lat="42.35060704395152" lon="12.966131203272647"><ele>448.0</ele><time>2026-04-04T09:18:43Z</time></trkpt><trkpt lat="42.35067540405988" lon="12.96607318518882"><ele>449.0</ele><time>2026-04-04T09:18:45Z</time></trkpt><trkpt lat="42.35074616413666" lon="12.966034837562429"><ele>450.0</ele><time>2026-04-04T09:18:47Z</time></trkpt><trkpt lat="42.35085508812666" lon="12.96599459530878"><ele>451.0</ele><time>2026-04-04T09:18:49Z</time></trkpt><trkpt lat="42.350953919600336" lon="12.965950668197681"><ele>451.00000000000006</ele><time>2026-04-04T09:18:51Z</time></trkpt><trkpt lat="42.35107909015151" lon="12.96591752579949"><ele>451.0</ele><time>2026-04-04T09:18:53Z</time></trkpt><trkpt lat="42.35114657359679" lon="12.96589902497848"><ele>451.0</ele><time>2026-04-04T09:18:54Z</time></trkpt><trkpt lat="42.351212726622464" lon="12.965879291785445"><ele>451.0</ele><time>2026-04-04T09:18:55Z</time></trkpt><trkpt lat="42.35131292755702" lon="12.965876662577674"><ele>451.00000000000006</ele><time>2026-04-04T09:18:57Z</time></trkpt><trkpt lat="42.35139237183453" lon="12.965869857264893"><ele>451.0</ele><time>2026-04-04T09:18:59Z</time></trkpt><trkpt lat="42.35143732814875" lon="12.9657749234389"><ele>447.83333333333337</ele><time>2026-04-04T09:19:01Z</time></trkpt><trkpt lat="42.351403580806625" lon="12.965623071832606"><ele>444.6666666666667</ele><time>2026-04-04T09:19:03Z</time></trkpt><trkpt lat="42.35141955614189" lon="12.965528100254035"><ele>441.5</ele><time>2026-04-04T09:19:04Z</time></trkpt><trkpt lat="42.35139671193147" lon="12.965445604432714"><ele>438.33333333333337</ele><time>2026-04-04T09:19:05Z</time></trkpt><trkpt lat="42.35139050604048" lon="12.965357461197462"><ele>435.1666666666667</ele><time>2026-04-04T09:19:06Z</time></trkpt><trkpt lat="42.3513812909822" lon="12.965258096040875"><ele>432.0</ele><time>2026-04-04T09:19:07Z</time></trkpt><trkpt lat="42.351369550068576" lon="12.965151106150687"><ele>431.3333333333333</ele><time>2026-04-04T09:19:08Z</time></trkpt><trkpt lat="42.35135609560509" lon="12.965051375278087"><ele>430.66666666666663</ele><time>2026-04-04T09:19:09Z</time></trkpt><trkpt lat="42.351338528166494" lon="12.964957352509062"><ele>430.0</ele><time>2026-04-04T09:19:10Z</time></trkpt><trkpt lat="42.35134259045696" lon="12.964864152373016"><ele>429.3333333333333</ele><time>2026-04-04T09:19:11Z</time></trkpt><trkpt lat="42.35132307609425" lon="12.964713915484484"><ele>428.66666666666663</ele><time>2026-04-04T09:19:13Z</time></trkpt><trkpt lat="42.35136171171827" lon="12.964592742160184"><ele>428.0</ele><time>2026-04-04T09:19:15Z</time></trkpt><trkpt lat="42.35141699024333" lon="12.964549021494076"><ele>427.5714285714286</ele><time>2026-04-04T09:19:16Z</time></trkpt><trkpt lat="42.35148317417953" lon="12.964530215571127"><ele>427.14285714285717</ele><time>2026-04-04T09:19:17Z</time></trkpt><trkpt lat="42.35154726093118" lon="12.96451865901431"><ele>426.7142857142857</ele><time>2026-04-04T09:19:18Z</time></trkpt><trkpt lat="42.3516130492484" lon="12.964510198177635"><ele>426.28571428571433</ele><time>2026-04-04T09:19:19Z</time></trkpt><trkpt lat="42.35168749891607" lon="12.964490113817822"><ele>425.85714285714283</ele><time>2026-04-04T09:19:19.999Z</time></trkpt><trkpt lat="42.351764639655734" lon="12.96448495316498"><ele>425.42857142857144</ele><time>2026-04-04T09:19:20.999Z</time></trkpt><trkpt lat="42.3518403660096" lon="12.964487986847454"><ele>425.0</ele><time>2026-04-04T09:19:21.999Z</time></trkpt><trkpt lat="42.35191823689904" lon="12.96447382131341"><ele>424.99999999999994</ele><time>2026-04-04T09:19:22.999Z</time></trkpt><trkpt lat="42.35199485343081" lon="12.964460969244348"><ele>425.0</ele><time>2026-04-04T09:19:23.999Z</time></trkpt><trkpt lat="42.35207187023223" lon="12.964444888174112"><ele>425.0</ele><time>2026-04-04T09:19:24.999Z</time></trkpt><trkpt lat="42.35214815804218" lon="12.964430798333257"><ele>425.0</ele><time>2026-04-04T09:19:25.999Z</time></trkpt><trkpt lat="42.352230737824065" lon="12.964413875894438"><ele>424.99999999999994</ele><time>2026-04-04T09:19:26.999Z</time></trkpt><trkpt lat="42.35232254867449" lon="12.964386253637617"><ele>425.0</ele><time>2026-04-04T09:19:27.999Z</time></trkpt><trkpt lat="42.35241106634199" lon="12.964366652731634"><ele>424.66666666666663</ele><time>2026-04-04T09:19:28.999Z</time></trkpt><trkpt lat="42.35249520157263" lon="12.964325427817311"><ele>424.3333333333333</ele><time>2026-04-04T09:19:29.999Z</time></trkpt><trkpt lat="42.35257199933494" lon="12.96427058118667"><ele>424.0</ele><time>2026-04-04T09:19:30.999Z</time></trkpt><trkpt lat="42.35265099935825" lon="12.964205668802324"><ele>423.66666666666663</ele><time>2026-04-04T09:19:31.999Z</time></trkpt><trkpt lat="42.35272594452012" lon="12.964138226175104"><ele>423.3333333333333</ele><time>2026-04-04T09:19:32.999Z</time></trkpt><trkpt lat="42.35279856920199" lon="12.964070196237515"><ele>423.0</ele><time>2026-04-04T09:19:33.999Z</time></trkpt><trkpt lat="42.352871810467214" lon="12.963990729117782"><ele>423.0</ele><time>2026-04-04T09:19:34.999Z</time></trkpt><trkpt lat="42.35294502545232" lon="12.963914428479304"><ele>423.0</ele><time>2026-04-04T09:19:35.999Z</time></trkpt><trkpt lat="42.3530136594303" lon="12.963833083358864"><ele>423.0</ele><time>2026-04-04T09:19:36.999Z</time></trkpt><trkpt lat="42.353073890201536" lon="12.963758714656912"><ele>423.0</ele><time>2026-04-04T09:19:37.999Z</time></trkpt><trkpt lat="42.353134274846454" lon="12.963682696324453"><ele>423.0</ele><time>2026-04-04T09:19:38.999Z</time></trkpt><trkpt lat="42.3532053447491" lon="12.963607970077295"><ele>423.0</ele><time>2026-04-04T09:19:39.999Z</time></trkpt><trkpt lat="42.35327337334209" lon="12.963541644290647"><ele>423.1666666666667</ele><time>2026-04-04T09:19:40.999Z</time></trkpt><trkpt lat="42.353336947707724" lon="12.963462603229571"><ele>423.33333333333337</ele><time>2026-04-04T09:19:41.999Z</time></trkpt><trkpt lat="42.35339555898574" lon="12.963379207707217"><ele>423.5</ele><time>2026-04-04T09:19:42.999Z</time></trkpt><trkpt lat="42.3534474458509" lon="12.96329371839237"><ele>423.6666666666667</ele><time>2026-04-04T09:19:43.999Z</time></trkpt><trkpt lat="42.35349053172426" lon="12.963207496586007"><ele>423.83333333333337</ele><time>2026-04-04T09:19:44.999Z</time></trkpt><trkpt lat="42.353542401376906" lon="12.963100894943562"><ele>424.0</ele><time>2026-04-04T09:19:45.999Z</time></trkpt><trkpt lat="42.35357943573226" lon="12.962995461641942"><ele>424.00000000000006</ele><time>2026-04-04T09:19:46.999Z</time></trkpt><trkpt lat="42.35361320197633" lon="12.962884993411265"><ele>424.0</ele><time>2026-04-04T09:19:47.999Z</time></trkpt><trkpt lat="42.35364867106549" lon="12.96277591037396"><ele>424.0</ele><time>2026-04-04T09:19:48.999Z</time></trkpt><trkpt lat="42.35369233928808" lon="12.962666420953697"><ele>424.0</ele><time>2026-04-04T09:19:49.999Z</time></trkpt><trkpt lat="42.35374102034926" lon="12.962568369478042"><ele>424.00000000000006</ele><time>2026-04-04T09:19:50.999Z</time></trkpt><trkpt lat="42.35379529172518" lon="12.96247223122126"><ele>424.0</ele><time>2026-04-04T09:19:51.999Z</time></trkpt><trkpt lat="42.353853472384685" lon="12.962371356817197"><ele>428.4</ele><time>2026-04-04T09:19:52.999Z</time></trkpt><trkpt lat="42.35390342029447" lon="12.9622677220775"><ele>432.79999999999995</ele><time>2026-04-04T09:19:53.999Z</time></trkpt><trkpt lat="42.35394955478148" lon="12.962146854079466"><ele>437.20000000000005</ele><time>2026-04-04T09:19:54.999Z</time></trkpt><trkpt lat="42.35398727184164" lon="12.96202051409728"><ele>441.6</ele><time>2026-04-04T09:19:55.999Z</time></trkpt><trkpt lat="42.35402183478346" lon="12.961901672211033"><ele>446.0</ele><time>2026-04-04T09:19:56.999Z</time></trkpt><trkpt lat="42.35405246510576" lon="12.961799576715338"><ele>443.3333333333333</ele><time>2026-04-04T09:19:57.999Z</time></trkpt><trkpt lat="42.35408939439268" lon="12.961689099829853"><ele>440.66666666666663</ele><time>2026-04-04T09:19:58.999Z</time></trkpt><trkpt lat="42.35412895316257" lon="12.961587403791567"><ele>438.0</ele><time>2026-04-04T09:19:59.999Z</time></trkpt><trkpt lat="42.35417121664547" lon="12.961484882567262"><ele>435.33333333333337</ele><time>2026-04-04T09:20:00.999Z</time></trkpt><trkpt lat="42.354213375177544" lon="12.9613789446184"><ele>432.6666666666667</ele><time>2026-04-04T09:20:02Z</time></trkpt><trkpt lat="42.35425162538742" lon="12.961264048316064"><ele>430.0</ele><time>2026-04-04T09:20:03Z</time></trkpt><trkpt lat="42.354289963270745" lon="12.961137439957344"><ele>430.0</ele><time>2026-04-04T09:20:04Z</time></trkpt><trkpt lat="42.354315873787414" lon="12.96099692740753"><ele>430.0</ele><time>2026-04-04T09:20:05Z</time></trkpt><trkpt lat="42.354330089725806" lon="12.96086155691606"><ele>430.0</ele><time>2026-04-04T09:20:06Z</time></trkpt><trkpt lat="42.35434549199211" lon="12.960747765686085"><ele>430.0</ele><time>2026-04-04T09:20:07Z</time></trkpt><trkpt lat="42.35436058877836" lon="12.960634429134611"><ele>430.0</ele><time>2026-04-04T09:20:08Z</time></trkpt><trkpt lat="42.3543705540274" lon="12.9605250923343"><ele>428.50000000000006</ele><time>2026-04-04T09:20:09Z</time></trkpt><trkpt lat="42.35438197074945" lon="12.960414474893385"><ele>427.0</ele><time>2026-04-04T09:20:10Z</time></trkpt><trkpt lat="42.35438507122382" lon="12.960301641051654"><ele>425.5</ele><time>2026-04-04T09:20:11Z</time></trkpt><trkpt lat="42.35437610365852" lon="12.96018482326274"><ele>424.0</ele><time>2026-04-04T09:20:12Z</time></trkpt><trkpt lat="42.35437001942131" lon="12.960074155000907"><ele>422.50000000000006</ele><time>2026-04-04T09:20:13Z</time></trkpt><trkpt lat="42.35436199703438" lon="12.959969845057682"><ele>421.0</ele><time>2026-04-04T09:20:14Z</time></trkpt><trkpt lat="42.35435550489103" lon="12.959863901813861"><ele>420.83333333333337</ele><time>2026-04-04T09:20:15Z</time></trkpt><trkpt lat="42.3543504797357" lon="12.959757830713409"><ele>420.6666666666667</ele><time>2026-04-04T09:20:16Z</time></trkpt><trkpt lat="42.35434389901211" lon="12.959655366390377"><ele>420.5</ele><time>2026-04-04T09:20:17Z</time></trkpt><trkpt lat="42.3543367880682" lon="12.959555403040214"><ele>420.33333333333337</ele><time>2026-04-04T09:20:18Z</time></trkpt><trkpt lat="42.35432721266581" lon="12.959451829185884"><ele>420.1666666666667</ele><time>2026-04-04T09:20:19Z</time></trkpt><trkpt lat="42.35431811354714" lon="12.959349555260689"><ele>420.0</ele><time>2026-04-04T09:20:20Z</time></trkpt><trkpt lat="42.3543115951678" lon="12.959242838202192"><ele>420.0</ele><time>2026-04-04T09:20:21Z</time></trkpt><trkpt lat="42.354305325206184" lon="12.959140630156268"><ele>420.0</ele><time>2026-04-04T09:20:22Z</time></trkpt><trkpt lat="42.354296904915856" lon="12.959041263688208"><ele>420.0</ele><time>2026-04-04T09:20:23Z</time></trkpt><trkpt lat="42.35429213112717" lon="12.958937397170962"><ele>420.0</ele><time>2026-04-04T09:20:24Z</time></trkpt><trkpt lat="42.35428909688707" lon="12.958837557857963"><ele>420.0</ele><time>2026-04-04T09:20:25Z</time></trkpt><trkpt lat="42.35429374460864" lon="12.958734821202079"><ele>420.0</ele><time>2026-04-04T09:20:26Z</time></trkpt><trkpt lat="42.35430697930614" lon="12.958625594357658"><ele>420.0</ele><time>2026-04-04T09:20:27Z</time></trkpt><trkpt lat="42.3543251736464" lon="12.958518883613579"><ele>420.0</ele><time>2026-04-04T09:20:28Z</time></trkpt><trkpt lat="42.35435086681033" lon="12.958410885543884"><ele>420.0</ele><time>2026-04-04T09:20:29Z</time></trkpt><trkpt lat="42.3543778128551" lon="12.95830245727574"><ele>420.0</ele><time>2026-04-04T09:20:30Z</time></trkpt><trkpt lat="42.354402851416545" lon="12.95819668936047"><ele>420.0</ele><time>2026-04-04T09:20:31Z</time></trkpt><trkpt lat="42.35443706976503" lon="12.958091218060952"><ele>420.0</ele><time>2026-04-04T09:20:32Z</time></trkpt><trkpt lat="42.354452122723956" lon="12.957986285650916"><ele>419.3333333333333</ele><time>2026-04-04T09:20:33Z</time></trkpt><trkpt lat="42.354462830034414" lon="12.957876161176122"><ele>418.66666666666663</ele><time>2026-04-04T09:20:34Z</time></trkpt><trkpt lat="42.354472163534574" lon="12.957765403152054"><ele>418.0</ele><time>2026-04-04T09:20:35Z</time></trkpt><trkpt lat="42.3544688016176" lon="12.957655033104189"><ele>417.3333333333333</ele><time>2026-04-04T09:20:36Z</time></trkpt><trkpt lat="42.354466159852926" lon="12.957554712726477"><ele>416.66666666666663</ele><time>2026-04-04T09:20:37Z</time></trkpt><trkpt lat="42.35448189947407" lon="12.957391591273026"><ele>416.0</ele><time>2026-04-04T09:20:39Z</time></trkpt><trkpt lat="42.354508034031916" lon="12.957259185788429"><ele>415.4</ele><time>2026-04-04T09:20:41Z</time></trkpt><trkpt lat="42.35456985879876" lon="12.957130135176508"><ele>414.8</ele><time>2026-04-04T09:20:43Z</time></trkpt><trkpt lat="42.35461000020456" lon="12.957038121329296"><ele>414.2</ele><time>2026-04-04T09:20:44Z</time></trkpt><trkpt lat="42.354650116362336" lon="12.956933839561415"><ele>413.59999999999997</ele><time>2026-04-04T09:20:45Z</time></trkpt><trkpt lat="42.35469070579817" lon="12.956827640881645"><ele>413.0</ele><time>2026-04-04T09:20:46Z</time></trkpt><trkpt lat="42.35472875658936" lon="12.95672285807198"><ele>415.3333333333333</ele><time>2026-04-04T09:20:47Z</time></trkpt><trkpt lat="42.354771352964356" lon="12.956620393992946"><ele>417.66666666666663</ele><time>2026-04-04T09:20:48Z</time></trkpt><trkpt lat="42.354813687500794" lon="12.95652373782728"><ele>420.0</ele><time>2026-04-04T09:20:49Z</time></trkpt><trkpt lat="42.3548506627767" lon="12.956434212001932"><ele>422.33333333333337</ele><time>2026-04-04T09:20:50Z</time></trkpt><trkpt lat="42.35488854346528" lon="12.956339924961721"><ele>424.6666666666667</ele><time>2026-04-04T09:20:51Z</time></trkpt><trkpt lat="42.354928624006455" lon="12.956242054986545"><ele>427.0</ele><time>2026-04-04T09:20:52Z</time></trkpt><trkpt lat="42.35496410504001" lon="12.956142255435614"><ele>427.00000000000006</ele><time>2026-04-04T09:20:53Z</time></trkpt><trkpt lat="42.35499826331299" lon="12.956047069351996"><ele>427.0</ele><time>2026-04-04T09:20:54Z</time></trkpt><trkpt lat="42.35503514133655" lon="12.955951404065019"><ele>427.0</ele><time>2026-04-04T09:20:55Z</time></trkpt><trkpt lat="42.35506716276826" lon="12.955853283722876"><ele>427.0</ele><time>2026-04-04T09:20:56Z</time></trkpt><trkpt lat="42.3550936238728" lon="12.955752825687426"><ele>427.00000000000006</ele><time>2026-04-04T09:20:57Z</time></trkpt><trkpt lat="42.3551151745353" lon="12.955649381918207"><ele>427.0</ele><time>2026-04-04T09:20:58Z</time></trkpt><trkpt lat="42.35513137891853" lon="12.955540946757743"><ele>426.83333333333337</ele><time>2026-04-04T09:20:59Z</time></trkpt><trkpt lat="42.35514200493243" lon="12.955427407077906"><ele>426.6666666666667</ele><time>2026-04-04T09:21:00Z</time></trkpt><trkpt lat="42.355151570165766" lon="12.955317086084339"><ele>426.5</ele><time>2026-04-04T09:21:01Z</time></trkpt><trkpt lat="42.35516097206287" lon="12.955204989265791"><ele>426.33333333333337</ele><time>2026-04-04T09:21:02Z</time></trkpt><trkpt lat="42.355170593995666" lon="12.95509053866522"><ele>426.1666666666667</ele><time>2026-04-04T09:21:03Z</time></trkpt><trkpt lat="42.35517902107236" lon="12.95497954500951"><ele>426.0</ele><time>2026-04-04T09:21:04Z</time></trkpt><trkpt lat="42.35518577935258" lon="12.954867306574183"><ele>424.6666666666667</ele><time>2026-04-04T09:21:05Z</time></trkpt><trkpt lat="42.35519273777655" lon="12.954753298288567"><ele>423.33333333333337</ele><time>2026-04-04T09:21:06Z</time></trkpt><trkpt lat="42.35520134496337" lon="12.954640180351914"><ele>422.0</ele><time>2026-04-04T09:21:07Z</time></trkpt><trkpt lat="42.35521426439756" lon="12.954528631604818"><ele>420.6666666666667</ele><time>2026-04-04T09:21:08Z</time></trkpt><trkpt lat="42.35522729052198" lon="12.954416875200131"><ele>419.33333333333337</ele><time>2026-04-04T09:21:09Z</time></trkpt><trkpt lat="42.35523870194524" lon="12.95429881744626"><ele>418.0</ele><time>2026-04-04T09:21:10Z</time></trkpt><trkpt lat="42.35525322400573" lon="12.954177612735915"><ele>417.50000000000006</ele><time>2026-04-04T09:21:11Z</time></trkpt><trkpt lat="42.355275797754125" lon="12.954060027638416"><ele>417.0</ele><time>2026-04-04T09:21:12Z</time></trkpt><trkpt lat="42.35530162444809" lon="12.953944745167847"><ele>416.5</ele><time>2026-04-04T09:21:13Z</time></trkpt><trkpt lat="42.35532878044629" lon="12.953831103544582"><ele>416.0</ele><time>2026-04-04T09:21:14Z</time></trkpt><trkpt lat="42.35535718837006" lon="12.953718207574479"><ele>415.50000000000006</ele><time>2026-04-04T09:21:15Z</time></trkpt><trkpt lat="42.355387706013786" lon="12.95360696297195"><ele>415.0</ele><time>2026-04-04T09:21:16Z</time></trkpt><trkpt lat="42.3554255103529" lon="12.953499465276836"><ele>415.00000000000006</ele><time>2026-04-04T09:21:17Z</time></trkpt><trkpt lat="42.355460963795004" lon="12.95339265487138"><ele>415.0</ele><time>2026-04-04T09:21:18Z</time></trkpt><trkpt lat="42.3554961917344" lon="12.9532854012995"><ele>415.0</ele><time>2026-04-04T09:21:19Z</time></trkpt><trkpt lat="42.3555278380765" lon="12.953175294135162"><ele>415.0</ele><time>2026-04-04T09:21:20Z</time></trkpt><trkpt lat="42.355561760971455" lon="12.95306327037037"><ele>415.00000000000006</ele><time>2026-04-04T09:21:21Z</time></trkpt><trkpt lat="42.355590335010255" lon="12.952947914430807"><ele>415.0</ele><time>2026-04-04T09:21:22Z</time></trkpt><trkpt lat="42.35561124983583" lon="12.95282899346536"><ele>417.83333333333337</ele><time>2026-04-04T09:21:23Z</time></trkpt><trkpt lat="42.35561783398193" lon="12.952706532136103"><ele>420.6666666666667</ele><time>2026-04-04T09:21:23.999Z</time></trkpt><trkpt lat="42.35561912902084" lon="12.952582496389953"><ele>423.5</ele><time>2026-04-04T09:21:24.999Z</time></trkpt><trkpt lat="42.35561244275923" lon="12.952460448208763"><ele>426.33333333333337</ele><time>2026-04-04T09:21:25.999Z</time></trkpt><trkpt lat="42.35559885531639" lon="12.952340511028892"><ele>429.1666666666667</ele><time>2026-04-04T09:21:26.999Z</time></trkpt><trkpt lat="42.355593188906724" lon="12.95222327662449"><ele>432.0</ele><time>2026-04-04T09:21:27.999Z</time></trkpt><trkpt lat="42.355582014529716" lon="12.952096759067125"><ele>432.0</ele><time>2026-04-04T09:21:28.999Z</time></trkpt><trkpt lat="42.35557890270584" lon="12.951987528643494"><ele>432.0</ele><time>2026-04-04T09:21:29.999Z</time></trkpt><trkpt lat="42.355575499600825" lon="12.951874438911124"><ele>432.0</ele><time>2026-04-04T09:21:30.999Z</time></trkpt><trkpt lat="42.35556995926921" lon="12.951765706242782"><ele>432.0</ele><time>2026-04-04T09:21:31.999Z</time></trkpt><trkpt lat="42.355562853670406" lon="12.951658389936433"><ele>432.0</ele><time>2026-04-04T09:21:32.999Z</time></trkpt><trkpt lat="42.355556282334916" lon="12.951551336824386"><ele>432.0</ele><time>2026-04-04T09:21:33.999Z</time></trkpt><trkpt lat="42.35555667369521" lon="12.951462064395598"><ele>426.0</ele><time>2026-04-04T09:21:34.999Z</time></trkpt><trkpt lat="42.35553799679335" lon="12.951353926551246"><ele>426.0</ele><time>2026-04-04T09:21:36.999Z</time></trkpt><trkpt lat="42.35554076613901" lon="12.951268262972025"><ele>426.0</ele><time>2026-04-04T09:21:45.999Z</time></trkpt><trkpt lat="42.35550617099983" lon="12.951189776892129"><ele>411.0</ele><time>2026-04-04T09:23:18Z</time></trkpt><trkpt lat="42.355510145605834" lon="12.951275097086343"><ele>411.0</ele><time>2026-04-04T09:23:32.999Z</time></trkpt></trkseg></trk></gpx>